M I D A S
Marine Information and Data Acquisition System
Tripno 705 of the Zeeleeuw from 2004-05-03 06:37:17 to 2004-05-03 13:20:30
Back to CruiseResearch ActivitiesStationsMapUnderway DataData graphs

EquipmentUnitsComment
TimeDGPSUTC
LatitudeDGPSDM.mWGS84
LongitudeDGPSDM.mWGS84
TemperatureSBE03/SBE38deg celciusITS90
ConductivitySBE21S/mITS90
SalinitySBE21 Practical Salinity Units
ChlorophylAChelsea fluorimeterg/lCalibrated in Aceton
Missing or incorrect values are displayed as -999
Sea surface data collected by the RV Zeeleeuw from 2004-05-03 06:37:17 to 2004-05-03 13:20:30
                                                                                    Next 1000 lines
Time Latitude Longitude Temperature Conductivity Salinity ChlorophylA
2004-05-03 06:37:25 51°13.598 2°56.097 18.553939 4.141986 26.854091 0.263742
2004-05-03 06:37:30 51°13.597 2°56.097 18.558689 4.141881 26.853726 0.263742
2004-05-03 06:37:34 51°13.597 2°56.097 18.558689 4.141881 26.853726 0.263742
2004-05-03 06:37:40 51°13.597 2°56.097 18.562076 4.141881 26.854122 0.263742
2004-05-03 06:37:45 51°13.597 2°56.097 18.563976 4.141881 26.854518 0.297452
2004-05-03 06:37:50 51°13.597 2°56.097 18.566165 4.141776 26.854153 0.263742
2004-05-03 06:37:55 51°13.597 2°56.097 18.563357 4.141881 26.85531 0.263742
2004-05-03 06:38:00 51°13.597 2°56.097 18.562242 4.14167 26.853789 0.297452
2004-05-03 06:38:05 51°13.597 2°56.097 18.562242 4.14167 26.853789 0.297452
2004-05-03 06:38:10 51°13.597 2°56.095 18.512286 4.14167 26.854581 0.263742
2004-05-03 06:38:14 51°13.598 2°56.093 18.498438 4.141565 26.85382 0.263742
2004-05-03 06:38:20 51°13.599 2°56.088 18.506251 4.141565 26.85382 0.263742
2004-05-03 06:38:25 51°13.6 2°56.084 18.527991 4.141565 26.855008 0.263742
2004-05-03 06:38:30 51°13.602 2°56.079 18.566124 4.141565 26.854216 0.263742
2004-05-03 06:38:36 51°13.604 2°56.072 18.566124 4.141565 26.854216 0.263742
2004-05-03 06:38:41 51°13.606 2°56.066 18.581982 4.141354 26.853487 0.297452
2004-05-03 06:38:46 51°13.609 2°56.059 18.574467 4.141354 26.853883 0.263742
2004-05-03 06:38:50 51°13.611 2°56.053 18.558731 4.141459 26.855039 0.297452
2004-05-03 06:38:56 51°13.614 2°56.043 18.535884 4.141354 26.854278 0.263742
2004-05-03 06:39:01 51°13.616 2°56.035 18.551625 4.141248 26.853518 0.263742
2004-05-03 06:39:06 51°13.619 2°56.026 18.551625 4.141248 26.853518 0.263742
2004-05-03 06:39:10 51°13.621 2°56.019 18.568809 4.141143 26.853549 0.263742
2004-05-03 06:39:16 51°13.624 2°56.008 18.558152 4.141248 26.854706 0.263742
2004-05-03 06:39:21 51°13.627 2°55.999 18.563563 4.141143 26.854341 0.297452
2004-05-03 06:39:26 51°13.63 2°55.989 18.569139 4.141038 26.853976 0.297452
2004-05-03 06:39:31 51°13.633 2°55.979 18.570048 4.141038 26.854372 0.297452
2004-05-03 06:39:36 51°13.636 2°55.969 18.570048 4.141038 26.854372 0.297452
2004-05-03 06:39:41 51°13.64 2°55.958 18.570874 4.141038 26.854372 0.297452
2004-05-03 06:39:46 51°13.643 2°55.948 18.594121 4.140827 26.853247 0.263742
2004-05-03 06:39:50 51°13.645 2°55.94 18.614555 4.140932 26.8548 0.297452
2004-05-03 06:39:56 51°13.649 2°55.927 18.61633 4.140721 26.853674 0.263742
2004-05-03 06:40:01 51°13.652 2°55.917 18.609808 4.140827 26.854831 0.297452
2004-05-03 06:40:06 51°13.655 2°55.906 18.609808 4.140827 26.854831 0.297452
2004-05-03 06:40:10 51°13.657 2°55.897 18.607538 4.140827 26.854435 0.297452
2004-05-03 06:40:16 51°13.661 2°55.884 18.601346 4.140721 26.854466 0.297452
2004-05-03 06:40:21 51°13.663 2°55.874 18.595773 4.140616 26.854102 0.263742
2004-05-03 06:40:26 51°13.666 2°55.863 18.597342 4.140616 26.854498 0.297452
2004-05-03 06:40:30 51°13.667 2°55.854 18.59441 4.140721 26.855258 0.263742
2004-05-03 06:40:36 51°13.67 2°55.84 18.59441 4.140721 26.855258 0.263742
2004-05-03 06:40:41 51°13.671 2°55.829 18.594328 4.140511 26.854133 0.263742
2004-05-03 06:40:46 51°13.673 2°55.817 18.592553 4.140405 26.853768 0.263742
2004-05-03 06:40:50 51°13.674 2°55.808 18.588919 4.140405 26.85456 0.297452
2004-05-03 06:40:56 51°13.674 2°55.794 18.591479 4.1403 26.854592 0.297452
2004-05-03 06:41:01 51°13.675 2°55.784 18.596516 4.140405 26.854956 0.297452
2004-05-03 06:41:06 51°13.675 2°55.774 18.596516 4.140405 26.854956 0.297452
2004-05-03 06:41:10 51°13.675 2°55.767 18.605846 4.1403 26.854592 0.297452
2004-05-03 06:41:14 51°13.675 2°55.761 18.606176 4.1403 26.854988 0.263742
2004-05-03 06:41:20 51°13.675 2°55.754 18.606878 4.1403 26.854988 0.263742
2004-05-03 06:41:25 51°13.675 2°55.75 18.594287 4.140194 26.854623 0.263742
2004-05-03 06:41:30 51°13.675 2°55.746 18.592098 4.140089 26.854258 0.297452
2004-05-03 06:41:34 51°13.674 2°55.744 18.592098 4.140089 26.854258 0.297452
2004-05-03 06:41:40 51°13.674 2°55.742 17.960977 2.488713 15.197968 9.129315
2004-05-03 06:41:45 51°13.675 2°55.742 15.93865 0.4663 2.495291 8.084324
2004-05-03 06:41:50 51°13.676 2°55.743 15.202991 0.11474 0.571133 14.118306
2004-05-03 06:41:55 51°13.678 2°55.745 14.427074 3.401527 21.746703 10.578819
2004-05-03 06:42:00 51°13.681 2°55.748 13.970735 3.581488 24.213335 13.34299
2004-05-03 06:42:05 51°13.685 2°55.751 13.970735 3.581488 24.213335 13.34299
2004-05-03 06:42:10 51°13.69 2°55.752 13.717593 3.764871 26.986008 14.4554
2004-05-03 06:42:16 51°13.697 2°55.753 13.642263 3.799989 28.443668 36.197965
2004-05-03 06:42:20 51°13.702 2°55.752 13.514701 3.647087 27.928331 68.221896
2004-05-03 06:42:25 51°13.709 2°55.75 13.515057 3.747636 29.657454 68.221896
2004-05-03 06:42:30 51°13.716 2°55.746 13.509275 3.670713 29.439082 68.188187
2004-05-03 06:42:35 51°13.723 2°55.74 13.509275 3.670713 29.439082 68.188187
2004-05-03 06:42:40 51°13.729 2°55.735 13.503716 3.622562 29.336617 68.120768
2004-05-03 06:42:45 51°13.736 2°55.729 13.480448 3.53153 28.714234 68.154477
2004-05-03 06:42:50 51°13.742 2°55.724 13.50287 3.464106 28.206366 68.120768
2004-05-03 06:42:54 51°13.747 2°55.719 13.514034 3.423866 27.925599 68.154477
2004-05-03 06:43:00 51°13.755 2°55.711 13.482139 3.399006 27.736455 68.120768
2004-05-03 06:43:05 51°13.761 2°55.704 13.482139 3.399006 27.736455 68.120768
2004-05-03 06:43:10 51°13.768 2°55.697 13.487745 3.386261 27.65219 68.120768
2004-05-03 06:43:14 51°13.774 2°55.691 13.593418 3.362772 27.457432 68.120768
2004-05-03 06:43:20 51°13.782 2°55.682 13.591285 3.344445 27.304921 68.120768
2004-05-03 06:43:25 51°13.79 2°55.674 13.568048 3.316113 27.056069 68.154477
2004-05-03 06:43:30 51°13.797 2°55.667 13.573736 3.279989 26.738201 68.120768
2004-05-03 06:43:34 51°13.803 2°55.661 13.573736 3.279989 26.738201 68.120768
2004-05-03 06:43:40 51°13.813 2°55.653 13.539291 3.223963 26.228395 68.154477
2004-05-03 06:43:45 51°13.821 2°55.645 13.503671 3.186369 25.869908 68.120768
2004-05-03 06:43:50 51°13.829 2°55.638 13.470213 3.155623 25.587116 68.120768
2004-05-03 06:43:55 51°13.838 2°55.631 13.452321 3.144146 25.484862 68.120768
2004-05-03 06:44:00 51°13.846 2°55.623 13.426631 3.136986 25.432461 68.120768
2004-05-03 06:44:05 51°13.855 2°55.616 13.426631 3.136986 25.432461 68.120768
2004-05-03 06:44:10 51°13.863 2°55.609 13.432464 3.153096 25.595156 68.120768
2004-05-03 06:44:14 51°13.87 2°55.604 13.433355 3.178051 25.839699 68.120768
2004-05-03 06:44:20 51°13.881 2°55.596 13.394961 3.209642 26.136236 68.120768
2004-05-03 06:44:25 51°13.89 2°55.589 13.38801 3.241866 26.449245 68.120768
2004-05-03 06:44:30 51°13.898 2°55.583 13.349323 3.284097 26.845084 68.120768
2004-05-03 06:44:34 51°13.905 2°55.577 13.349323 3.284097 26.845084 68.120768
2004-05-03 06:44:40 51°13.916 2°55.569 13.302806 3.314429 27.128795 68.154477
2004-05-03 06:44:45 51°13.926 2°55.563 13.262597 3.336547 27.33691 68.120768
2004-05-03 06:44:50 51°13.935 2°55.556 13.225802 3.360036 27.568304 68.120768
2004-05-03 06:44:54 51°13.943 2°55.551 13.189434 3.39448 27.897697 68.120768
2004-05-03 06:45:00 51°13.955 2°55.542 13.160201 3.42092 28.158917 68.154477
2004-05-03 06:45:05 51°13.965 2°55.535 13.160201 3.42092 28.158917 68.154477
2004-05-03 06:45:10 51°13.976 2°55.528 13.135651 3.449363 28.443112 68.154477
2004-05-03 06:45:14 51°13.984 2°55.523 13.145087 3.469274 28.656364 68.120768
2004-05-03 06:45:20 51°13.997 2°55.515 13.135069 3.488237 28.862722 68.154477
2004-05-03 06:45:25 51°14.008 2°55.508 13.098562 3.488132 28.883365 68.120768
2004-05-03 06:45:30 51°14.018 2°55.5 13.108496 3.520055 29.205051 68.154477
2004-05-03 06:45:34 51°14.027 2°55.495 13.108496 3.520055 29.205051 68.154477
2004-05-03 06:45:40 51°14.04 2°55.486 13.093819 3.531855 29.329729 68.120768
2004-05-03 06:45:45 51°14.051 2°55.478 13.101337 3.545868 29.467239 68.154477
2004-05-03 06:45:50 51°14.062 2°55.47 13.102456 3.556404 29.579421 68.120768
2004-05-03 06:45:54 51°14.071 2°55.464 13.107959 3.545658 29.489223 68.154477
2004-05-03 06:46:00 51°14.085 2°55.455 13.116908 3.555035 29.585996 68.120768
2004-05-03 06:46:05 51°14.096 2°55.446 13.116908 3.555035 29.585996 68.120768
2004-05-03 06:46:10 51°14.108 2°55.437 13.124558 3.566836 29.701651 68.154477
2004-05-03 06:46:14 51°14.117 2°55.43 13.114 3.574211 29.770437 68.188187
2004-05-03 06:46:20 51°14.132 2°55.419 13.123752 3.559249 29.633351 68.120768
2004-05-03 06:46:25 51°14.143 2°55.409 13.123574 3.561989 29.658064 68.188187
2004-05-03 06:46:30 51°14.155 2°55.399 13.11816 3.564412 29.675636 68.188187
2004-05-03 06:46:36 51°14.169 2°55.386 13.11816 3.564412 29.675636 68.188187
2004-05-03 06:46:40 51°14.178 2°55.377 13.121829 3.565887 29.689267 68.154477
2004-05-03 06:46:45 51°14.19 2°55.365 13.132162 3.571261 29.739535 68.120768
2004-05-03 06:46:50 51°14.201 2°55.352 13.137976 3.55809 29.616023 68.188187
2004-05-03 06:46:54 51°14.209 2°55.342 13.140481 3.553244 29.571255 68.120768
2004-05-03 06:47:00 51°14.222 2°55.325 13.119458 3.551874 29.559806 68.188187
2004-05-03 06:47:05 51°14.233 2°55.311 13.119458 3.551874 29.559806 68.188187
2004-05-03 06:47:10 51°14.244 2°55.296 13.114581 3.560303 29.636464 68.120768
2004-05-03 06:47:15 51°14.254 2°55.28 13.111628 3.551136 29.549993 68.154477
2004-05-03 06:47:20 51°14.264 2°55.264 13.1157 3.534595 29.394907 68.154477
2004-05-03 06:47:25 51°14.274 2°55.248 13.119995 3.554929 29.582619 68.154477
2004-05-03 06:47:30 51°14.284 2°55.231 13.115029 3.554719 29.586081 68.120768
2004-05-03 06:47:35 51°14.294 2°55.213 13.115029 3.554719 29.586081 68.120768
2004-05-03 06:47:40 51°14.304 2°55.194 13.100218 3.543761 29.491482 68.154477
2004-05-03 06:47:44 51°14.312 2°55.179 13.074572 3.536597 29.429516 68.154477
2004-05-03 06:47:50 51°14.324 2°55.154 13.060737 3.530908 29.377589 68.154477
2004-05-03 06:47:55 51°14.334 2°55.133 13.054737 3.524586 29.318052 68.154477
2004-05-03 06:48:00 51°14.345 2°55.112 13.044437 3.52722 29.345938 68.154477
2004-05-03 06:48:05 51°14.355 2°55.091 13.044437 3.52722 29.345938 68.154477
2004-05-03 06:48:10 51°14.367 2°55.07 13.037987 3.526693 29.348829 68.154477
2004-05-03 06:48:15 51°14.379 2°55.049 13.035165 3.523322 29.330823 68.188187
2004-05-03 06:48:20 51°14.39 2°55.026 13.032388 3.514472 29.260412 68.154477
2004-05-03 06:48:25 51°14.4 2°55.001 13.018141 3.517106 29.293681 68.154477
2004-05-03 06:48:30 51°14.409 2°54.976 12.988564 3.514683 29.277252 68.154477
2004-05-03 06:48:34 51°14.417 2°54.956 12.988564 3.514683 29.277252 68.154477
2004-05-03 06:48:40 51°14.428 2°54.924 12.980181 3.510153 29.241348 68.120768
2004-05-03 06:48:45 51°14.437 2°54.897 12.960228 3.498775 29.1392 68.188187
2004-05-03 06:48:50 51°14.445 2°54.869 12.934483 3.409969 28.326804 68.120768
2004-05-03 06:48:55 51°14.45 2°54.84 12.894635 3.442203 28.634187 68.154477
2004-05-03 06:49:00 51°14.454 2°54.81 12.873534 3.443257 28.656746 68.120768
2004-05-03 06:49:05 51°14.456 2°54.779 12.873534 3.443257 28.656746 68.120768
2004-05-03 06:49:10 51°14.457 2°54.748 12.827538 3.456531 28.792138 68.120768
2004-05-03 06:49:14 51°14.457 2°54.723 12.801023 3.445469 28.703487 68.087059
2004-05-03 06:49:20 51°14.455 2°54.686 12.771303 3.448735 28.750662 68.120768
2004-05-03 06:49:25 51°14.453 2°54.654 12.748139 3.46064 28.884883 68.087059
2004-05-03 06:49:30 51°14.449 2°54.624 12.708944 3.489822 29.180743 68.120768
2004-05-03 06:49:34 51°14.445 2°54.599 12.708944 3.489822 29.180743 68.120768
2004-05-03 06:49:40 51°14.438 2°54.562 12.691162 3.522482 29.506172 68.120768
2004-05-03 06:49:45 51°14.432 2°54.532 12.683687 3.554617 29.833144 68.087059
2004-05-03 06:49:50 51°14.424 2°54.503 12.669276 3.57137 30.012654 68.087059
2004-05-03 06:49:54 51°14.417 2°54.48 12.656168 3.578641 30.095321 68.120768
2004-05-03 06:50:00 51°14.406 2°54.446 12.633865 3.632801 30.63055 68.087059
2004-05-03 06:50:05 51°14.397 2°54.418 12.633865 3.632801 30.63055 68.087059
2004-05-03 06:50:10 51°14.387 2°54.39 12.635397 3.642917 30.739877 68.053349
2004-05-03 06:50:14 51°14.379 2°54.368 12.621427 3.650715 30.826963 68.053349
2004-05-03 06:50:20 51°14.367 2°54.336 12.615567 3.661885 30.945186 68.087059
2004-05-03 06:50:25 51°14.357 2°54.308 12.639949 3.668735 31.022313 68.087059
2004-05-03 06:50:30 51°14.347 2°54.281 12.606281 3.671159 31.057902 68.087059
2004-05-03 06:50:35 51°14.337 2°54.254 12.606281 3.671159 31.057902 68.087059
2004-05-03 06:50:40 51°14.327 2°54.226 12.599878 3.676744 31.118131 68.087059
2004-05-03 06:50:45 51°14.317 2°54.198 12.596317 3.669789 31.060397 68.120768
2004-05-03 06:50:50 51°14.307 2°54.17 12.593295 3.681065 31.172935 68.087059
2004-05-03 06:50:55 51°14.298 2°54.142 12.580443 3.666207 31.032456 68.154477
2004-05-03 06:51:00 51°14.289 2°54.113 12.593837 3.685913 31.224378 68.120768
2004-05-03 06:51:05 51°14.28 2°54.084 12.593837 3.685913 31.224378 68.120768
2004-05-03 06:51:10 51°14.271 2°54.055 12.581435 3.687177 31.242095 68.087059
2004-05-03 06:51:14 51°14.264 2°54.032 12.582247 3.686967 31.245272 68.120768
2004-05-03 06:51:20 51°14.254 2°53.997 12.58572 3.678536 31.174872 68.154477
2004-05-03 06:51:25 51°14.246 2°53.968 12.595054 3.690339 31.289975 68.087059
2004-05-03 06:51:30 51°14.237 2°53.939 12.574535 3.681909 31.209224 68.154477
2004-05-03 06:51:35 51°14.228 2°53.91 12.574535 3.681909 31.209224 68.154477
2004-05-03 06:51:40 51°14.219 2°53.881 12.569663 3.684754 31.237329 68.087059
2004-05-03 06:51:45 51°14.209 2°53.853 12.571287 3.676007 31.154909 68.154477
2004-05-03 06:51:50 51°14.199 2°53.825 12.549949 3.685913 31.250838 68.120768
2004-05-03 06:51:56 51°14.186 2°53.792 12.543406 3.685281 31.24617 68.120768
2004-05-03 06:52:00 51°14.178 2°53.771 12.554415 3.692025 31.317522 68.120768
2004-05-03 06:52:05 51°14.166 2°53.743 12.554415 3.692025 31.317522 68.120768
2004-05-03 06:52:10 51°14.156 2°53.716 12.547241 3.682647 31.234896 68.087059
2004-05-03 06:52:15 51°14.144 2°53.689 12.555182 3.69329 31.339818 68.154477
2004-05-03 06:52:20 51°14.134 2°53.662 12.551753 3.676218 31.18461 68.120768
2004-05-03 06:52:25 51°14.123 2°53.634 12.534741 3.691288 31.333243 68.087059
2004-05-03 06:52:30 51°14.113 2°53.606 12.549723 3.682225 31.250311 68.120768
2004-05-03 06:52:35 51°14.103 2°53.577 12.549723 3.682225 31.250311 68.120768
2004-05-03 06:52:40 51°14.094 2°53.548 12.573001 3.684333 31.270845 68.120768
2004-05-03 06:52:45 51°14.085 2°53.519 12.555724 3.695714 31.378267 68.120768
2004-05-03 06:52:50 51°14.076 2°53.49 12.543451 3.676535 31.198564 68.120768
2004-05-03 06:52:55 51°14.068 2°53.46 12.533071 3.672214 31.1591 68.120768
2004-05-03 06:53:00 51°14.059 2°53.431 12.533432 3.673373 31.168098 68.120768
2004-05-03 06:53:05 51°14.051 2°53.402 12.533432 3.673373 31.168098 68.120768
2004-05-03 06:53:10 51°14.041 2°53.373 12.526933 3.681277 31.235545 68.087059
2004-05-03 06:53:14 51°14.033 2°53.35 12.511991 3.688232 31.300515 68.120768
2004-05-03 06:53:20 51°14.021 2°53.316 12.512759 3.669158 31.129633 68.120768
2004-05-03 06:53:25 51°14.011 2°53.288 12.503142 3.696347 31.391383 68.087059
2004-05-03 06:53:30 51°14 2°53.259 12.493569 3.68897 31.329517 68.120768
2004-05-03 06:53:34 51°13.992 2°53.237 12.493569 3.68897 31.329517 68.120768
2004-05-03 06:53:40 51°13.979 2°53.204 12.500387 3.681172 31.263015 68.120768
2004-05-03 06:53:45 51°13.968 2°53.175 12.493659 3.689076 31.343494 68.053349
2004-05-03 06:53:50 51°13.958 2°53.147 12.50865 3.695399 31.408439 68.087059
2004-05-03 06:53:54 51°13.95 2°53.124 12.50707 3.698139 31.441502 68.087059
2004-05-03 06:54:00 51°13.938 2°53.089 12.500974 3.693291 31.400884 68.087059
2004-05-03 06:54:05 51°13.929 2°53.06 12.500974 3.693291 31.400884 68.087059
2004-05-03 06:54:10 51°13.92 2°53.03 12.499936 3.687706 31.349389 68.087059
2004-05-03 06:54:14 51°13.913 2°53.006 12.48413 3.691816 31.388239 68.120768
2004-05-03 06:54:20 51°13.902 2°52.971 12.482097 3.688443 31.353762 68.154477
2004-05-03 06:54:25 51°13.893 2°52.941 12.480517 3.696242 31.425524 68.120768
2004-05-03 06:54:30 51°13.883 2°52.912 12.479478 3.691183 31.378358 68.087059
2004-05-03 06:54:35 51°13.873 2°52.883 12.479478 3.691183 31.378358 68.087059
2004-05-03 06:54:40 51°13.863 2°52.854 12.474645 3.690657 31.378582 68.120768
2004-05-03 06:54:45 51°13.852 2°52.826 12.47862 3.696347 31.436295 68.154477
2004-05-03 06:54:50 51°13.842 2°52.797 12.482685 3.696031 31.439173 68.120768
2004-05-03 06:54:54 51°13.834 2°52.774 12.478484 3.692027 31.406511 68.154477
2004-05-03 06:55:00 51°13.822 2°52.74 12.487472 3.701195 31.494553 68.120768
2004-05-03 06:55:05 51°13.812 2°52.711 12.487472 3.701195 31.494553 68.120768
2004-05-03 06:55:10 51°13.802 2°52.682 12.49244 3.698034 31.464639 68.154477
2004-05-03 06:55:14 51°13.794 2°52.658 12.488782 3.701195 31.496514 68.087059
2004-05-03 06:55:20 51°13.782 2°52.623 12.49524 3.692027 31.407814 68.120768
2004-05-03 06:55:25 51°13.773 2°52.593 12.484807 3.696242 31.448995 68.120768
2004-05-03 06:55:30 51°13.764 2°52.564 12.477897 3.704989 31.527839 68.087059
2004-05-03 06:55:34 51°13.756 2°52.541 12.477897 3.704989 31.527839 68.087059
2004-05-03 06:55:40 51°13.744 2°52.506 12.478484 3.695083 31.430202 68.120768
2004-05-03 06:55:45 51°13.734 2°52.477 12.478168 3.699825 31.474407 68.087059
2004-05-03 06:55:50 51°13.724 2°52.448 12.474554 3.693397 31.414907 68.154477
2004-05-03 06:55:54 51°13.716 2°52.425 12.47871 3.70109 31.48833 68.154477
2004-05-03 06:56:00 51°13.704 2°52.39 12.473786 3.704251 31.52282 68.120768
2004-05-03 06:56:05 51°13.694 2°52.361 12.473786 3.704251 31.52282 68.120768
2004-05-03 06:56:10 51°13.683 2°52.332 12.475141 3.699298 31.478564 68.154477
2004-05-03 06:56:14 51°13.675 2°52.308 12.468546 3.708151 31.562998 68.154477
2004-05-03 06:56:20 51°13.663 2°52.274 12.476948 3.678854 31.287144 68.120768
2004-05-03 06:56:25 51°13.654 2°52.244 12.472341 3.706043 31.546975 68.154477
2004-05-03 06:56:30 51°13.644 2°52.215 12.4671 3.709942 31.584546 68.120768
2004-05-03 06:56:34 51°13.636 2°52.191 12.4671 3.709942 31.584546 68.120768
2004-05-03 06:56:40 51°13.624 2°52.156 12.468817 3.703619 31.526648 68.120768
2004-05-03 06:56:45 51°13.614 2°52.127 12.466152 3.70794 31.567553 68.120768
2004-05-03 06:56:50 51°13.604 2°52.098 12.467326 3.708361 31.5722 68.154477
2004-05-03 06:56:56 51°13.592 2°52.063 12.462357 3.707835 31.567866 68.120768
2004-05-03 06:57:00 51°13.584 2°52.039 12.460323 3.703514 31.528268 68.120768
2004-05-03 06:57:05 51°13.574 2°52.01 12.460323 3.703514 31.528268 68.120768
2004-05-03 06:57:10 51°13.564 2°51.981 12.463622 3.692765 31.426528 68.087059
2004-05-03 06:57:14 51°13.556 2°51.958 12.460504 3.710891 31.598773 68.120768
2004-05-03 06:57:20 51°13.544 2°51.923 12.458245 3.708151 31.575447 68.120768
2004-05-03 06:57:25 51°13.534 2°51.893 12.459962 3.711523 31.609354 68.120768
2004-05-03 06:57:30 51°13.524 2°51.864 12.459104 3.707518 31.572081 68.087059
2004-05-03 06:57:34 51°13.516 2°51.84 12.459104 3.707518 31.572081 68.087059
2004-05-03 06:57:40 51°13.504 2°51.806 12.455715 3.707518 31.572081 68.120768
2004-05-03 06:57:45 51°13.494 2°51.776 12.456076 3.690025 31.408424 68.120768
2004-05-03 06:57:50 51°13.484 2°51.747 12.453727 3.710785 31.604991 68.154477
2004-05-03 06:57:55 51°13.474 2°51.718 12.452642 3.70657 31.56572 68.154477
2004-05-03 06:58:01 51°13.462 2°51.683 12.450112 3.706043 31.562696 68.120768
2004-05-03 06:58:05 51°13.454 2°51.66 12.450112 3.706043 31.562696 68.120768
2004-05-03 06:58:10 51°13.444 2°51.631 12.442113 3.715422 31.652862 68.087059
2004-05-03 06:58:14 51°13.436 2°51.607 12.4427 3.705727 31.561667 68.154477
2004-05-03 06:58:20 51°13.424 2°51.572 12.440531 3.690446 31.419589 68.154477
2004-05-03 06:58:25 51°13.415 2°51.543 12.442971 3.695294 31.467444 68.154477
2004-05-03 06:58:29 51°13.407 2°51.519 12.438 3.710469 31.613155 68.120768
2004-05-03 06:58:34 51°13.398 2°51.489 12.438 3.710469 31.613155 68.120768
2004-05-03 06:58:40 51°13.386 2°51.453 12.433932 3.693081 31.451062 68.087059
2004-05-03 06:58:45 51°13.377 2°51.424 12.427333 3.721219 31.71899 68.087059
2004-05-03 06:58:50 51°13.367 2°51.394 12.426429 3.722167 31.729301 68.154477
2004-05-03 06:58:54 51°13.359 2°51.371 12.42349 3.70931 31.60808 68.154477
2004-05-03 06:59:00 51°13.347 2°51.336 12.423988 3.713104 31.646668 68.087059
2004-05-03 06:59:05 51°13.337 2°51.307 12.423988 3.713104 31.646668 68.087059
2004-05-03 06:59:10 51°13.327 2°51.278 12.41793 3.727753 31.790196 68.154477
2004-05-03 06:59:14 51°13.319 2°51.255 12.417613 3.717847 31.698872 68.120768
2004-05-03 06:59:20 51°13.307 2°51.22 12.420281 3.706887 31.596927 68.120768
2004-05-03 06:59:25 51°13.297 2°51.191 12.418472 3.712051 31.647199 68.154477
2004-05-03 06:59:30 51°13.287 2°51.162 12.421998 3.706254 31.594873 68.120768
2004-05-03 06:59:34 51°13.28 2°51.139 12.421998 3.706254 31.594873 68.120768
2004-05-03 06:59:40 51°13.268 2°51.104 12.421456 3.723432 31.75977 68.154477
2004-05-03 06:59:45 51°13.259 2°51.075 12.411555 3.713842 31.670112 68.154477
2004-05-03 06:59:50 51°13.249 2°51.045 12.413137 3.713948 31.671771 68.120768
2004-05-03 06:59:54 51°13.241 2°51.022 12.416166 3.720692 31.736413 68.120768
2004-05-03 07:00:00 51°13.229 2°50.988 12.41689 3.714896 31.680108 68.154477
2004-05-03 07:00:05 51°13.219 2°50.959 12.41689 3.714896 31.680108 68.154477
2004-05-03 07:00:10 51°13.209 2°50.93 12.409882 3.717109 31.703078 68.120768
2004-05-03 07:00:13 51°13.203 2°50.913 12.411329 3.706149 31.603728 68.087059
2004-05-03 07:00:20 51°13.19 2°50.872 12.412775 3.710259 31.641393 68.154477
2004-05-03 07:00:25 51°13.18 2°50.843 12.413228 3.718901 31.722713 68.120768
2004-05-03 07:00:30 51°13.171 2°50.814 12.411555 3.707941 31.618089 68.087059
2004-05-03 07:00:36 51°13.159 2°50.779 12.411555 3.707941 31.618089 68.087059
2004-05-03 07:00:40 51°13.151 2°50.756 12.413499 3.711102 31.652023 68.120768
2004-05-03 07:00:45 51°13.141 2°50.727 12.409475 3.719112 31.727352 68.154477
2004-05-03 07:00:50 51°13.131 2°50.697 12.411329 3.713842 31.678675 68.120768
2004-05-03 07:00:55 51°13.122 2°50.668 12.412866 3.712894 31.669677 68.120768
2004-05-03 07:01:00 51°13.112 2°50.639 12.414539 3.698035 31.528753 68.087059
2004-05-03 07:01:05 51°13.102 2°50.61 12.414539 3.698035 31.528753 68.087059
2004-05-03 07:01:10 51°13.092 2°50.581 12.414765 3.686759 31.420566 68.154477
2004-05-03 07:01:15 51°13.082 2°50.552 12.417975 3.728175 31.816017 68.087059
2004-05-03 07:01:18 51°13.076 2°50.534 12.420733 3.721009 31.746673 68.154477
2004-05-03 07:01:25 51°13.063 2°50.493 12.419422 3.70636 31.608356 68.154477
2004-05-03 07:01:30 51°13.053 2°50.464 12.421772 3.721535 31.750353 68.154477
2004-05-03 07:01:34 51°13.045 2°50.44 12.421772 3.721535 31.750353 68.154477
2004-05-03 07:01:41 51°13.031 2°50.399 12.420868 3.72143 31.750674 68.120768
2004-05-03 07:01:45 51°13.023 2°50.376 12.419331 3.697191 31.518139 68.087059
2004-05-03 07:01:50 51°13.014 2°50.346 12.427378 3.720903 31.741712 68.154477
2004-05-03 07:01:54 51°13.006 2°50.323 12.426022 3.720903 31.741052 68.120768
2004-05-03 07:02:00 51°12.994 2°50.287 12.427875 3.718058 31.714714 68.120768
2004-05-03 07:02:05 51°12.985 2°50.258 12.427875 3.718058 31.714714 68.120768
2004-05-03 07:02:10 51°12.975 2°50.229 12.432486 3.732812 31.852755 68.120768
2004-05-03 07:02:14 51°12.967 2°50.205 12.432531 3.722484 31.754072 68.154477
2004-05-03 07:02:20 51°12.956 2°50.169 12.433571 3.715423 31.685765 68.120768
2004-05-03 07:02:25 51°12.946 2°50.14 12.436237 3.705306 31.588507 68.154477
2004-05-03 07:02:30 51°12.936 2°50.111 12.434429 3.729966 31.820451 68.087059
2004-05-03 07:02:34 51°12.928 2°50.087 12.434429 3.729966 31.820451 68.087059
2004-05-03 07:02:40 51°12.916 2°50.052 12.435514 3.715423 31.681813 68.120768
2004-05-03 07:02:45 51°12.907 2°50.022 12.434068 3.723222 31.754469 68.087059
2004-05-03 07:02:50 51°12.897 2°49.993 12.437548 3.713842 31.664188 68.154477
2004-05-03 07:02:54 51°12.889 2°49.969 12.438859 3.714685 31.672183 68.087059
2004-05-03 07:03:00 51°12.878 2°49.934 12.435243 3.703093 31.560965 68.120768
2004-05-03 07:03:05 51°12.868 2°49.904 12.435243 3.703093 31.560965 68.120768
2004-05-03 07:03:10 51°12.858 2°49.875 12.434294 3.710891 31.634892 68.087059
2004-05-03 07:03:15 51°12.849 2°49.845 12.435062 3.727542 31.792822 68.120768
2004-05-03 07:03:20 51°12.839 2°49.816 12.432621 3.733971 31.852501 68.087059
2004-05-03 07:03:25 51°12.829 2°49.787 12.437819 3.729439 31.809498 68.154477
2004-05-03 07:03:30 51°12.819 2°49.757 12.436599 3.729334 31.808498 68.120768
2004-05-03 07:03:36 51°12.808 2°49.722 12.436599 3.729334 31.808498 68.120768
2004-05-03 07:03:40 51°12.8 2°49.698 12.438949 3.730388 31.819821 68.087059
2004-05-03 07:03:45 51°12.79 2°49.669 12.436463 3.717425 31.69751 68.120768
2004-05-03 07:03:50 51°12.78 2°49.639 12.436011 3.708257 31.609914 68.120768
2004-05-03 07:03:54 51°12.772 2°49.615 12.43565 3.729861 31.813498 68.154477
2004-05-03 07:04:01 51°12.759 2°49.574 12.433706 3.732706 31.840499 68.154477
2004-05-03 07:04:05 51°12.752 2°49.55 12.433706 3.732706 31.840499 68.154477
2004-05-03 07:04:10 51°12.742 2°49.521 12.439085 3.708467 31.609284 68.087059
2004-05-03 07:04:15 51°12.732 2°49.491 12.436689 3.711102 31.635576 68.120768
2004-05-03 07:04:20 51°12.723 2°49.461 12.436599 3.732179 31.835499 68.120768
2004-05-03 07:04:25 51°12.713 2°49.432 12.435333 3.735973 31.871505 68.120768
2004-05-03 07:04:30 51°12.703 2°49.402 12.434294 3.71458 31.66855 68.120768
2004-05-03 07:04:34 51°12.695 2°49.379 12.434294 3.71458 31.66855 68.120768
2004-05-03 07:04:40 51°12.683 2°49.343 12.432395 3.731126 31.824837 68.120768
2004-05-03 07:04:45 51°12.674 2°49.314 12.43348 3.725435 31.770843 68.087059
2004-05-03 07:04:50 51°12.664 2°49.284 12.436825 3.717109 31.693852 68.120768
2004-05-03 07:04:55 51°12.654 2°49.255 12.432667 3.736079 31.87383 68.154477
2004-05-03 07:05:00 51°12.644 2°49.225 12.432893 3.735025 31.86449 68.087059
2004-05-03 07:05:05 51°12.634 2°49.196 12.432893 3.735025 31.86449 68.087059
2004-05-03 07:05:10 51°12.625 2°49.166 12.433209 3.732285 31.838484 68.154477
2004-05-03 07:05:14 51°12.617 2°49.142 12.43226 3.734709 31.862151 68.087059
2004-05-03 07:05:20 51°12.606 2°49.107 12.432531 3.739767 31.908843 68.120768
2004-05-03 07:05:25 51°12.596 2°49.077 12.434655 3.73629 31.877819 68.120768
2004-05-03 07:05:30 51°12.586 2°49.047 12.431085 3.737765 31.891161 68.120768
2004-05-03 07:05:36 51°12.575 2°49.012 12.431085 3.737765 31.891161 68.120768
2004-05-03 07:05:40 51°12.567 2°48.988 12.43226 3.737765 31.892487 68.120768
2004-05-03 07:05:45 51°12.557 2°48.959 12.434203 3.74177 31.929844 68.154477
2004-05-03 07:05:50 51°12.547 2°48.929 12.438542 3.73513 31.866815 68.087059
2004-05-03 07:05:56 51°12.536 2°48.894 12.431582 3.736922 31.883158 68.154477
2004-05-03 07:06:00 51°12.528 2°48.87 12.432124 3.737449 31.889486 68.087059
2004-05-03 07:06:05 51°12.518 2°48.84 12.432124 3.737449 31.889486 68.087059
2004-05-03 07:06:10 51°12.509 2°48.81 12.430271 3.739873 31.91316 68.087059
2004-05-03 07:06:16 51°12.497 2°48.775 12.426067 3.73492 31.865477 68.154477
2004-05-03 07:06:20 51°12.489 2°48.751 12.429141 3.735763 31.872817 68.120768
2004-05-03 07:06:25 51°12.48 2°48.722 12.423897 3.734287 31.860137 68.120768
2004-05-03 07:06:30 51°12.47 2°48.692 12.423988 3.739241 31.909147 68.087059
2004-05-03 07:06:36 51°12.458 2°48.656 12.423988 3.739241 31.909147 68.087059
2004-05-03 07:06:40 51°12.451 2°48.633 12.421818 3.737133 31.890462 68.120768
2004-05-03 07:06:45 51°12.441 2°48.603 12.422586 3.732706 31.847781 68.087059
2004-05-03 07:06:50 51°12.431 2°48.573 12.422767 3.733339 31.854446 68.120768
2004-05-03 07:06:56 51°12.419 2°48.538 12.417387 3.727648 31.802415 68.154477
2004-05-03 07:07:00 51°12.411 2°48.515 12.419557 3.736079 31.883772 68.053349
2004-05-03 07:07:05 51°12.4 2°48.486 12.419557 3.736079 31.883772 68.053349
2004-05-03 07:07:10 51°12.389 2°48.457 12.414313 3.728596 31.813402 68.087059
2004-05-03 07:07:15 51°12.379 2°48.428 12.412685 3.73081 31.835733 68.120768
2004-05-03 07:07:20 51°12.368 2°48.399 12.413273 3.730599 31.833732 68.087059
2004-05-03 07:07:25 51°12.358 2°48.37 12.415759 3.72965 31.828038 68.120768
2004-05-03 07:07:30 51°12.347 2°48.342 12.42349 3.724697 31.781681 68.087059
2004-05-03 07:07:36 51°12.334 2°48.307 12.42349 3.724697 31.781681 68.087059
2004-05-03 07:07:40 51°12.326 2°48.284 12.420281 3.721957 31.757656 68.120768
2004-05-03 07:07:45 51°12.315 2°48.255 12.422496 3.723327 31.771321 68.087059
2004-05-03 07:07:50 51°12.305 2°48.226 12.421501 3.721219 31.750655 68.120768
2004-05-03 07:07:54 51°12.296 2°48.203 12.423264 3.710997 31.654314 68.120768
2004-05-03 07:08:01 51°12.281 2°48.163 12.425479 3.717004 31.708012 68.087059
2004-05-03 07:08:05 51°12.273 2°48.14 12.425479 3.717004 31.708012 68.087059
2004-05-03 07:08:10 51°12.262 2°48.111 12.4234 3.71458 31.684356 68.087059
2004-05-03 07:08:15 51°12.252 2°48.082 12.426383 3.71732 31.709034 68.120768
2004-05-03 07:08:20 51°12.241 2°48.054 12.421953 3.715318 31.688719 68.120768
2004-05-03 07:08:25 51°12.231 2°48.025 12.422903 3.724381 31.774715 68.087059
2004-05-03 07:08:30 51°12.22 2°47.996 12.423129 3.721114 31.743712 68.087059
2004-05-03 07:08:34 51°12.212 2°47.973 12.423129 3.721114 31.743712 68.087059
2004-05-03 07:08:40 51°12.199 2°47.939 12.420416 3.72417 31.771393 68.120768
2004-05-03 07:08:45 51°12.189 2°47.91 12.424575 3.732601 31.852079 68.053349
2004-05-03 07:08:50 51°12.178 2°47.881 12.427333 3.729229 31.820066 68.120768
2004-05-03 07:08:54 51°12.169 2°47.858 12.427242 3.718479 31.719373 68.120768
2004-05-03 07:09:00 51°12.157 2°47.824 12.426248 3.726383 31.795041 68.154477
2004-05-03 07:09:05 51°12.146 2°47.796 12.426248 3.726383 31.795041 68.154477
2004-05-03 07:09:10 51°12.135 2°47.767 12.427242 3.732601 31.854066 68.120768
2004-05-03 07:09:15 51°12.125 2°47.738 12.424123 3.705517 31.596418 68.087059
2004-05-03 07:09:20 51°12.115 2°47.709 12.424214 3.721114 31.741732 68.120768
2004-05-03 07:09:25 51°12.104 2°47.68 12.421863 3.718795 31.720394 68.087059
2004-05-03 07:09:30 51°12.094 2°47.652 12.421366 3.726172 31.789735 68.087059
2004-05-03 07:09:34 51°12.086 2°47.629 12.421366 3.726172 31.789735 68.087059
2004-05-03 07:09:40 51°12.073 2°47.594 12.420597 3.73513 31.874767 68.087059
2004-05-03 07:09:45 51°12.062 2°47.566 12.418879 3.722379 31.756373 68.120768
2004-05-03 07:09:50 51°12.052 2°47.537 12.420054 3.734814 31.874416 68.087059
2004-05-03 07:09:54 51°12.043 2°47.514 12.414855 3.73376 31.866398 68.154477
2004-05-03 07:10:00 51°12.031 2°47.48 12.417477 3.738608 31.913097 68.087059
2004-05-03 07:10:05 51°12.02 2°47.451 12.417477 3.738608 31.913097 68.087059
2004-05-03 07:10:10 51°12.01 2°47.422 12.411962 3.739662 31.92377 68.087059
2004-05-03 07:10:15 51°11.999 2°47.394 12.412368 3.749042 32.012873 68.154477
2004-05-03 07:10:20 51°11.989 2°47.365 12.411781 3.740189 31.928775 68.087059
2004-05-03 07:10:25 51°11.978 2°47.336 12.411057 3.743562 31.962803 68.120768
2004-05-03 07:10:30 51°11.968 2°47.307 12.412052 3.744932 31.976484 68.053349
2004-05-03 07:10:36 51°11.956 2°47.273 12.412052 3.744932 31.976484 68.053349
2004-05-03 07:10:40 51°11.947 2°47.25 12.408796 3.751993 32.044913 68.120768
2004-05-03 07:10:45 51°11.937 2°47.221 12.40848 3.752942 32.054594 68.087059
2004-05-03 07:10:50 51°11.926 2°47.193 12.409158 3.754733 32.072291 68.120768
2004-05-03 07:10:56 51°11.914 2°47.158 12.406219 3.763165 32.153117 68.087059
2004-05-03 07:11:00 51°11.906 2°47.135 12.403189 3.758317 32.107022 68.087059
2004-05-03 07:11:05 51°11.895 2°47.106 12.403189 3.758317 32.107022 68.087059
2004-05-03 07:11:10 51°11.885 2°47.078 12.402556 3.757895 32.105018 68.087059
2004-05-03 07:11:15 51°11.874 2°47.049 12.40025 3.742613 31.960441 68.087059
2004-05-03 07:11:20 51°11.864 2°47.02 12.401607 3.755155 32.08097 68.120768
2004-05-03 07:11:25 51°11.854 2°46.991 12.398305 3.749675 32.029542 68.053349
2004-05-03 07:11:29 51°11.845 2°46.968 12.397039 3.754101 32.072286 68.120768
2004-05-03 07:11:36 51°11.831 2°46.928 12.397039 3.754101 32.072286 68.120768
2004-05-03 07:11:40 51°11.822 2°46.905 12.397763 3.746091 31.998149 68.087059
2004-05-03 07:11:45 51°11.811 2°46.876 12.395592 3.738925 31.932705 68.120768
2004-05-03 07:11:50 51°11.801 2°46.848 12.399074 3.756314 32.097335 68.087059
2004-05-03 07:11:56 51°11.788 2°46.813 12.4012 3.737133 31.916345 68.087059
2004-05-03 07:12:00 51°11.78 2°46.79 12.401019 3.75663 32.101678 68.120768
2004-05-03 07:12:05 51°11.769 2°46.762 12.401019 3.75663 32.101678 68.120768
2004-05-03 07:12:10 51°11.759 2°46.733 12.405812 3.75505 32.088649 68.120768
2004-05-03 07:12:16 51°11.746 2°46.699 12.408661 3.760425 32.139099 68.087059
2004-05-03 07:12:20 51°11.738 2°46.676 12.406581 3.754523 32.082302 68.087059
2004-05-03 07:12:25 51°11.728 2°46.647 12.407123 3.75368 32.072283 68.087059
2004-05-03 07:12:30 51°11.717 2°46.619 12.405857 3.738609 31.928371 68.087059
2004-05-03 07:12:34 51°11.709 2°46.596 12.405857 3.738609 31.928371 68.087059
2004-05-03 07:12:41 51°11.694 2°46.556 12.407666 3.753258 32.065605 68.120768
2004-05-03 07:12:45 51°11.686 2°46.533 12.412685 3.763903 32.166156 68.087059
2004-05-03 07:12:50 51°11.676 2°46.505 12.413408 3.767802 32.203248 68.087059
2004-05-03 07:12:55 51°11.666 2°46.476 12.413544 3.745143 31.987137 68.087059
2004-05-03 07:13:00 51°11.655 2°46.448 12.413001 3.769383 32.217617 68.120768
2004-05-03 07:13:05 51°11.645 2°46.42 12.413001 3.769383 32.217617 68.120768
2004-05-03 07:13:10 51°11.634 2°46.391 12.411374 3.763481 32.160808 68.120768
2004-05-03 07:13:14 51°11.626 2°46.368 12.41377 3.765694 32.17851 68.087059
2004-05-03 07:13:20 51°11.613 2°46.335 12.41594 3.772123 32.239661 68.120768
2004-05-03 07:13:25 51°11.603 2°46.306 12.41481 3.77655 32.281102 68.120768
2004-05-03 07:13:30 51°11.592 2°46.278 12.417432 3.756314 32.087318 68.087059
2004-05-03 07:13:35 51°11.582 2°46.25 12.417432 3.756314 32.087318 68.087059
2004-05-03 07:13:40 51°11.571 2°46.222 12.416754 3.774758 32.264727 68.120768
2004-05-03 07:13:45 51°11.561 2°46.193 12.415353 3.760951 32.132073 68.120768
2004-05-03 07:13:50 51°11.55 2°46.165 12.416347 3.769699 32.213921 68.087059
2004-05-03 07:13:55 51°11.54 2°46.137 12.418156 3.769488 32.211916 68.087059
2004-05-03 07:14:00 51°11.53 2°46.108 12.41906 3.774758 32.261371 68.120768
2004-05-03 07:14:05 51°11.519 2°46.08 12.41906 3.774758 32.261371 68.120768
2004-05-03 07:14:10 51°11.509 2°46.051 12.419828 3.778341 32.296134 68.154477
2004-05-03 07:14:15 51°11.499 2°46.023 12.420733 3.765167 32.170152 68.087059
2004-05-03 07:14:20 51°11.488 2°45.994 12.423038 3.760951 32.130067 68.120768
2004-05-03 07:14:25 51°11.478 2°45.966 12.425118 3.776971 32.281755 68.053349
2004-05-03 07:14:30 51°11.468 2°45.937 12.422948 3.771069 32.224941 68.120768
2004-05-03 07:14:33 51°11.461 2°45.92 12.422948 3.771069 32.224941 68.120768
2004-05-03 07:14:40 51°11.447 2°45.88 12.425479 3.768434 32.199212 68.120768
2004-05-03 07:14:45 51°11.436 2°45.852 12.42905 3.785508 32.360295 68.154477
2004-05-03 07:14:50 51°11.426 2°45.823 12.428915 3.779079 32.299122 68.087059
2004-05-03 07:14:55 51°11.416 2°45.794 12.429728 3.785192 32.355267 68.154477
2004-05-03 07:15:01 51°11.404 2°45.76 12.43348 3.782136 32.326857 68.087059
2004-05-03 07:15:05 51°11.396 2°45.737 12.43348 3.782136 32.326857 68.087059
2004-05-03 07:15:10 51°11.385 2°45.709 12.434339 3.783295 32.336543 68.120768
2004-05-03 07:15:16 51°11.373 2°45.675 12.436915 3.784033 32.340871 68.053349
2004-05-03 07:15:20 51°11.364 2°45.652 12.440757 3.785508 32.354237 68.087059
2004-05-03 07:15:25 51°11.354 2°45.623 12.442113 3.784454 32.342864 68.053349
2004-05-03 07:15:30 51°11.344 2°45.595 12.44618 3.785614 32.352548 68.087059
2004-05-03 07:15:36 51°11.331 2°45.561 12.44618 3.785614 32.352548 68.087059
2004-05-03 07:15:40 51°11.323 2°45.538 12.450699 3.784349 32.339171 68.087059
2004-05-03 07:15:45 51°11.313 2°45.51 12.451287 3.783295 32.327128 68.087059
2004-05-03 07:15:50 51°11.303 2°45.481 12.453727 3.766853 32.168787 68.120768
2004-05-03 07:15:54 51°11.294 2°45.459 12.454676 3.787511 32.362521 68.087059
2004-05-03 07:16:00 51°11.282 2°45.425 12.458155 3.785824 32.344463 68.087059
2004-05-03 07:16:05 51°11.272 2°45.396 12.458155 3.785824 32.344463 68.087059
2004-05-03 07:16:10 51°11.262 2°45.368 12.462086 3.792886 32.409613 68.154477
2004-05-03 07:16:14 51°11.253 2°45.345 12.46317 3.790672 32.385865 68.120768
2004-05-03 07:16:20 51°11.241 2°45.31 12.466784 3.779395 32.277286 68.053349
2004-05-03 07:16:25 51°11.232 2°45.281 12.470489 3.771174 32.197142 68.120768
2004-05-03 07:16:30 51°11.222 2°45.252 12.472476 3.78751 32.349741 68.120768
2004-05-03 07:16:36 51°11.212 2°45.216 12.472476 3.78751 32.349741 68.120768
2004-05-03 07:16:40 51°11.205 2°45.193 12.475819 3.788248 32.354739 68.053349
2004-05-03 07:16:45 51°11.196 2°45.162 12.478574 3.787721 32.34704 68.087059
2004-05-03 07:16:50 51°11.188 2°45.133 12.481826 3.80058 32.465944 68.120768
2004-05-03 07:16:54 51°11.181 2°45.108 12.484943 3.773809 32.208793 68.120768
2004-05-03 07:17:00 51°11.171 2°45.072 12.490814 3.784243 32.306592 68.087059
2004-05-03 07:17:05 51°11.163 2°45.042 12.490814 3.784243 32.306592 68.087059
2004-05-03 07:17:10 51°11.154 2°45.013 12.492575 3.786351 32.323939 68.120768
2004-05-03 07:17:15 51°11.145 2°44.983 12.497407 3.791937 32.375687 68.120768
2004-05-03 07:17:21 51°11.135 2°44.947 12.501336 3.789934 32.353965 68.087059
2004-05-03 07:17:25 51°11.127 2°44.923 12.504903 3.799842 32.445445 68.087059
2004-05-03 07:17:30 51°11.118 2°44.893 12.509553 3.799315 32.437066 68.120768
2004-05-03 07:17:36 51°11.108 2°44.857 12.509553 3.799315 32.437066 68.120768
2004-05-03 07:17:40 51°11.101 2°44.834 12.512804 3.798682 32.427015 68.120768
2004-05-03 07:17:45 51°11.092 2°44.804 12.516731 3.800474 32.442024 68.087059
2004-05-03 07:17:50 51°11.084 2°44.774 12.519801 3.780238 32.247768 68.053349
2004-05-03 07:17:56 51°11.073 2°44.738 12.524225 3.799525 32.42695 68.087059
2004-05-03 07:18:00 51°11.067 2°44.714 12.527655 3.801844 32.445617 68.087059
2004-05-03 07:18:05 51°11.058 2°44.684 12.527655 3.801844 32.445617 68.087059
2004-05-03 07:18:10 51°11.049 2°44.654 12.530544 3.803636 32.459274 68.120768
2004-05-03 07:18:16 51°11.039 2°44.619 12.534561 3.782345 32.254395 68.120768
2004-05-03 07:18:20 51°11.032 2°44.595 12.538171 3.801422 32.432187 68.120768
2004-05-03 07:18:25 51°11.023 2°44.565 12.541646 3.800684 32.422488 68.120768
2004-05-03 07:18:30 51°11.014 2°44.535 12.545527 3.804479 32.455163 68.120768
2004-05-03 07:18:35 51°11.005 2°44.506 12.545527 3.804479 32.455163 68.120768
2004-05-03 07:18:40 51°10.996 2°44.476 12.54855 3.78888 32.304367 68.120768
2004-05-03 07:18:45 51°10.987 2°44.447 12.552205 3.823345 32.626992 68.120768
2004-05-03 07:18:50 51°10.978 2°44.417 12.557709 3.824399 32.634979 68.120768
2004-05-03 07:18:53 51°10.973 2°44.399 12.559062 3.825453 32.642289 68.120768
2004-05-03 07:19:00 51°10.961 2°44.357 12.563574 3.82598 32.643912 68.120768
2004-05-03 07:19:05 51°10.953 2°44.327 12.563574 3.82598 32.643912 68.120768
2004-05-03 07:19:10 51°10.944 2°44.297 12.567228 3.826507 32.645536 68.053349
2004-05-03 07:19:15 51°10.936 2°44.267 12.57025 3.829564 32.671872 68.120768
2004-05-03 07:19:20 51°10.928 2°44.238 12.572821 3.820815 32.585382 68.087059
2004-05-03 07:19:25 51°10.919 2°44.208 12.577106 3.83399 32.706482 68.120768
2004-05-03 07:19:30 51°10.911 2°44.178 12.580488 3.826296 32.63068 68.120768
2004-05-03 07:19:35 51°10.902 2°44.148 12.580488 3.826296 32.63068 68.120768
2004-05-03 07:19:40 51°10.893 2°44.119 12.583149 3.82482 32.614638 68.053349
2004-05-03 07:19:45 51°10.884 2°44.09 12.586396 3.834412 32.702355 68.053349
2004-05-03 07:19:50 51°10.875 2°44.06 12.589057 3.836836 32.722674 68.087059
2004-05-03 07:19:54 51°10.868 2°44.036 12.593566 3.838312 32.733979 68.120768
2004-05-03 07:20:00 51°10.857 2°44.001 12.59537 3.835255 32.702912 68.120768
2004-05-03 07:20:05 51°10.849 2°43.971 12.59537 3.835255 32.702912 68.120768
2004-05-03 07:20:10 51°10.841 2°43.941 12.599202 3.83652 32.711538 68.087059
2004-05-03 07:20:14 51°10.834 2°43.917 12.601096 3.832198 32.66847 68.120768
2004-05-03 07:20:20 51°10.824 2°43.881 12.604207 3.842001 32.757491 68.087059
2004-05-03 07:20:25 51°10.816 2°43.851 12.607002 3.844214 32.775799 68.120768
2004-05-03 07:20:30 51°10.808 2°43.822 12.610608 3.84179 32.750741 68.120768
2004-05-03 07:20:34 51°10.801 2°43.798 12.610608 3.84179 32.750741 68.120768
2004-05-03 07:20:40 51°10.791 2°43.763 12.613313 3.843055 32.759361 68.087059
2004-05-03 07:20:45 51°10.782 2°43.733 12.616423 3.839471 32.723302 68.053349
2004-05-03 07:20:50 51°10.773 2°43.704 12.618181 3.84179 32.742606 68.087059
2004-05-03 07:20:56 51°10.762 2°43.669 12.6203 3.842738 32.748901 68.053349
2004-05-03 07:21:00 51°10.755 2°43.646 12.62332 3.848852 32.804908 68.120768
2004-05-03 07:21:05 51°10.746 2°43.616 12.62332 3.848852 32.804908 68.120768
2004-05-03 07:21:10 51°10.737 2°43.587 12.624852 3.853911 32.850233 68.120768
2004-05-03 07:21:14 51°10.731 2°43.563 12.627105 3.848746 32.799834 68.087059
2004-05-03 07:21:21 51°10.719 2°43.521 12.629809 3.846427 32.775107 68.053349
2004-05-03 07:21:25 51°10.713 2°43.497 12.629629 3.853384 32.839791 68.087059
2004-05-03 07:21:29 51°10.706 2°43.474 12.630981 3.855387 32.856087 68.087059
2004-05-03 07:21:34 51°10.698 2°43.444 12.630981 3.855387 32.856087 68.087059
2004-05-03 07:21:40 51°10.687 2°43.408 12.63373 3.85486 32.849045 68.120768
2004-05-03 07:21:45 51°10.679 2°43.379 12.634316 3.860657 32.901367 68.120768
2004-05-03 07:21:50 51°10.669 2°43.35 12.636118 3.863292 32.925708 68.120768
2004-05-03 07:21:55 51°10.66 2°43.32 12.635533 3.861184 32.904329 68.120768
2004-05-03 07:22:00 51°10.651 2°43.292 12.638957 3.867719 32.965024 68.053349
2004-05-03 07:22:05 51°10.642 2°43.262 12.638957 3.867719 32.965024 68.053349
2004-05-03 07:22:10 51°10.632 2°43.233 12.637425 3.868668 32.973351 68.087059
2004-05-03 07:22:14 51°10.625 2°43.21 12.639543 3.869406 32.979677 68.053349
2004-05-03 07:22:21 51°10.613 2°43.169 12.642021 3.867087 32.955609 68.053349
2004-05-03 07:22:25 51°10.605 2°43.146 12.643013 3.867719 32.960933 68.087059
2004-05-03 07:22:30 51°10.597 2°43.116 12.642652 3.868035 32.963936 68.087059
2004-05-03 07:22:34 51°10.591 2°43.092 12.642652 3.868035 32.963936 68.087059
2004-05-03 07:22:40 51°10.581 2°43.056 12.642292 3.866138 32.944557 68.087059
2004-05-03 07:22:45 51°10.573 2°43.026 12.642878 3.872568 33.00425 68.120768
2004-05-03 07:22:50 51°10.565 2°42.997 12.642742 3.873517 33.011894 68.087059
2004-05-03 07:22:56 51°10.555 2°42.961 12.646167 3.870144 32.977818 68.120768
2004-05-03 07:23:00 51°10.549 2°42.937 12.645175 3.875203 33.02518 68.087059
2004-05-03 07:23:05 51°10.54 2°42.908 12.645175 3.875203 33.02518 68.087059
2004-05-03 07:23:09 51°10.533 2°42.884 12.646888 3.875941 33.032187 68.087059
2004-05-03 07:23:15 51°10.522 2°42.85 12.64869 3.8732 33.005479 68.087059
2004-05-03 07:23:20 51°10.513 2°42.821 12.650131 3.878049 33.051526 68.053349
2004-05-03 07:23:25 51°10.503 2°42.792 12.651663 3.879209 33.061855 68.120768
2004-05-03 07:23:30 51°10.494 2°42.763 12.652159 3.880579 33.074871 68.120768
2004-05-03 07:23:36 51°10.483 2°42.728 12.652159 3.880579 33.074871 68.120768
2004-05-03 07:23:40 51°10.476 2°42.705 12.653916 3.880579 33.073503 68.120768
2004-05-03 07:23:45 51°10.467 2°42.676 12.652925 3.881844 33.085517 68.087059
2004-05-03 07:23:50 51°10.459 2°42.646 12.65761 3.878365 33.049746 68.053349
2004-05-03 07:23:56 51°10.449 2°42.611 12.659006 3.882793 33.091792 68.087059
2004-05-03 07:24:00 51°10.442 2°42.587 12.656664 3.885112 33.111766 68.087059
2004-05-03 07:24:05 51°10.434 2°42.558 12.656664 3.885112 33.111766 68.087059
2004-05-03 07:24:10 51°10.427 2°42.528 12.661259 3.885428 33.114085 68.087059
2004-05-03 07:24:16 51°10.417 2°42.492 12.658916 3.882687 33.086003 68.087059
2004-05-03 07:24:20 51°10.41 2°42.468 12.65815 3.881844 33.076627 68.053349
2004-05-03 07:24:25 51°10.402 2°42.439 12.659502 3.881633 33.073258 68.087059
2004-05-03 07:24:30 51°10.393 2°42.41 12.65779 3.885744 33.111613 68.087059
2004-05-03 07:24:35 51°10.384 2°42.381 12.65779 3.885744 33.111613 68.087059
2004-05-03 07:24:40 51°10.374 2°42.352 12.659457 3.885217 33.105923 68.120768
2004-05-03 07:24:45 51°10.365 2°42.324 12.660313 3.886903 33.122625 68.053349
2004-05-03 07:24:50 51°10.356 2°42.295 12.65806 3.885217 33.106608 68.053349
2004-05-03 07:24:55 51°10.347 2°42.266 12.660042 3.888485 33.137642 68.087059
2004-05-03 07:25:00 51°10.338 2°42.237 12.662204 3.889222 33.146021 68.120768
2004-05-03 07:25:05 51°10.33 2°42.207 12.662204 3.889222 33.146021 68.120768
2004-05-03 07:25:10 51°10.322 2°42.177 12.662925 3.891225 33.163674 68.087059
2004-05-03 07:25:16 51°10.311 2°42.142 12.665042 3.894704 33.19672 68.053349
2004-05-03 07:25:20 51°10.305 2°42.118 12.664592 3.894704 33.19672 68.154477
2004-05-03 07:25:25 51°10.297 2°42.089 12.666754 3.893439 33.184017 68.120768
2004-05-03 07:25:30 51°10.289 2°42.059 12.665267 3.891541 33.164622 68.053349
2004-05-03 07:25:35 51°10.281 2°42.03 12.665267 3.891541 33.164622 68.053349
2004-05-03 07:25:40 51°10.272 2°42 12.665988 3.897655 33.220643 68.053349
2004-05-03 07:25:45 51°10.263 2°41.971 12.666394 3.89755 33.218268 68.120768
2004-05-03 07:25:50 51°10.254 2°41.943 12.667204 3.899131 33.23329 68.053349
2004-05-03 07:25:56 51°10.242 2°41.909 12.666348 3.896074 33.203563 68.120768
2004-05-03 07:26:00 51°10.235 2°41.886 12.66788 3.899553 33.236609 68.120768
2004-05-03 07:26:05 51°10.225 2°41.858 12.66788 3.899553 33.236609 68.120768
2004-05-03 07:26:10 51°10.216 2°41.829 12.669681 3.903348 33.272665 68.053349
2004-05-03 07:26:14 51°10.208 2°41.806 12.670762 3.900607 33.247311 68.053349
2004-05-03 07:26:20 51°10.197 2°41.772 12.672069 3.902293 33.262649 68.120768
2004-05-03 07:26:25 51°10.189 2°41.742 12.67342 3.904191 33.280678 68.053349
2004-05-03 07:26:30 51°10.181 2°41.713 12.672924 3.907669 33.313047 68.053349
2004-05-03 07:26:36 51°10.172 2°41.677 12.672924 3.907669 33.313047 68.053349
2004-05-03 07:26:40 51°10.166 2°41.653 12.671438 3.904402 33.279931 68.053349
2004-05-03 07:26:45 51°10.159 2°41.624 12.672069 3.906615 33.298901 68.053349
2004-05-03 07:26:50 51°10.152 2°41.594 12.669096 3.905245 33.286568 68.120768
2004-05-03 07:26:54 51°10.145 2°41.57 12.666844 3.91157 33.344605 68.087059
2004-05-03 07:27:01 51°10.134 2°41.528 12.664322 3.912835 33.355937 68.087059
2004-05-03 07:27:05 51°10.128 2°41.505 12.664322 3.912835 33.355937 68.087059
2004-05-03 07:27:10 51°10.119 2°41.476 12.663961 3.906826 33.299528 68.087059
2004-05-03 07:27:15 51°10.11 2°41.448 12.663511 3.907669 33.307541 68.087059
2004-05-03 07:27:20 51°10.1 2°41.42 12.661709 3.916419 33.391382 68.120768
2004-05-03 07:27:25 51°10.091 2°41.391 12.665403 3.913783 33.368401 68.053349
2004-05-03 07:27:29 51°10.083 2°41.368 12.665267 3.91547 33.385813 68.087059
2004-05-03 07:27:36 51°10.071 2°41.328 12.665267 3.91547 33.385813 68.087059
2004-05-03 07:27:40 51°10.064 2°41.305 12.666123 3.912624 33.361516 68.087059
2004-05-03 07:27:45 51°10.056 2°41.276 12.668601 3.919581 33.428352 68.087059
2004-05-03 07:27:50 51°10.048 2°41.246 12.675942 3.914627 33.381936 68.087059
2004-05-03 07:27:54 51°10.042 2°41.222 12.670627 3.917262 33.405611 68.087059
2004-05-03 07:28:00 51°10.033 2°41.187 12.665267 3.918632 33.41795 68.087059
2004-05-03 07:28:05 51°10.025 2°41.157 12.665267 3.918632 33.41795 68.087059
2004-05-03 07:28:10 51°10.018 2°41.127 12.665267 3.9219 33.449715 68.087059
2004-05-03 07:28:15 51°10.01 2°41.098 12.665628 3.924536 33.469935 68.053349
2004-05-03 07:28:20 51°10.001 2°41.069 12.662655 3.922533 33.448817 68.053349
2004-05-03 07:28:25 51°9.992 2°41.04 12.662295 3.920635 33.432158 68.087059
2004-05-03 07:28:30 51°9.983 2°41.011 12.660313 3.925063 33.476331 68.053349
2004-05-03 07:28:34 51°9.975 2°40.989 12.660313 3.925063 33.476331 68.053349
2004-05-03 07:28:40 51°9.964 2°40.954 12.663826 3.929806 33.524219 68.053349
2004-05-03 07:28:45 51°9.955 2°40.926 12.659817 3.931072 33.537639 68.087059
2004-05-03 07:28:50 51°9.946 2°40.898 12.662069 3.927909 33.50894 68.053349
2004-05-03 07:28:56 51°9.935 2°40.863 12.660763 3.925379 33.486259 68.120768
2004-05-03 07:29:00 51°9.928 2°40.84 12.669366 3.933918 33.567493 68.087059
2004-05-03 07:29:05 51°9.921 2°40.81 12.669366 3.933918 33.567493 68.087059
2004-05-03 07:29:10 51°9.914 2°40.779 12.671618 3.932547 33.55376 68.087059
2004-05-03 07:29:15 51°9.907 2°40.749 12.66824 3.93318 33.561166 68.120768
2004-05-03 07:29:20 51°9.902 2°40.719 12.666799 3.937186 33.597202 68.087059
2004-05-03 07:29:25 51°9.896 2°40.688 12.666619 3.933918 33.564718 68.087059
2004-05-03 07:29:30 51°9.89 2°40.657 12.664727 3.934972 33.571973 68.120768
2004-05-03 07:29:36 51°9.883 2°40.62 12.664727 3.934972 33.571973 68.120768
2004-05-03 07:29:40 51°9.879 2°40.596 12.660808 3.933601 33.556854 68.120768
2004-05-03 07:29:45 51°9.872 2°40.566 12.664006 3.938134 33.599286 68.087059
2004-05-03 07:29:50 51°9.866 2°40.536 12.66288 3.933601 33.556854 68.087059
2004-05-03 07:29:55 51°9.859 2°40.505 12.663646 3.935921 33.579612 68.120768
2004-05-03 07:30:00 51°9.852 2°40.475 12.663195 3.938345 33.605459 68.087059
2004-05-03 07:30:05 51°9.844 2°40.445 12.663195 3.938345 33.605459 68.087059
2004-05-03 07:30:10 51°9.837 2°40.415 12.663826 3.939927 33.621201 68.120768
2004-05-03 07:30:15 51°9.831 2°40.385 12.666709 3.939821 33.620893 68.087059
2004-05-03 07:30:20 51°9.824 2°40.355 12.666123 3.940454 33.627608 68.087059
2004-05-03 07:30:25 51°9.818 2°40.324 12.667565 3.948044 33.699857 68.053349
2004-05-03 07:30:30 51°9.811 2°40.293 12.670853 3.942984 33.650993 68.120768
2004-05-03 07:30:34 51°9.807 2°40.269 12.670853 3.942984 33.650993 68.120768
2004-05-03 07:30:40 51°9.8 2°40.232 12.669907 3.946252 33.6821 68.087059
2004-05-03 07:30:45 51°9.793 2°40.202 12.672294 3.944565 33.665348 68.053349
2004-05-03 07:30:50 51°9.787 2°40.171 12.671933 3.946989 33.687036 68.087059
2004-05-03 07:30:55 51°9.78 2°40.141 12.669186 3.949941 33.713742 68.120768
2004-05-03 07:31:00 51°9.774 2°40.11 12.672519 3.951522 33.728099 68.087059
2004-05-03 07:31:05 51°9.767 2°40.08 12.672519 3.951522 33.728099 68.087059
2004-05-03 07:31:10 51°9.759 2°40.05 12.672024 3.944776 33.662485 68.120768
2004-05-03 07:31:16 51°9.751 2°40.014 12.674456 3.945724 33.670123 68.087059
2004-05-03 07:31:20 51°9.745 2°39.99 12.672294 3.946146 33.674832 68.120768
2004-05-03 07:31:25 51°9.739 2°39.96 12.672564 3.948044 33.692893 68.120768
2004-05-03 07:31:30 51°9.732 2°39.93 12.675401 3.955318 33.762139 68.087059
2004-05-03 07:31:35 51°9.726 2°39.899 12.675401 3.955318 33.762139 68.087059
2004-05-03 07:31:40 51°9.72 2°39.869 12.674636 3.95226 33.731639 68.087059
2004-05-03 07:31:45 51°9.714 2°39.838 12.673825 3.954896 33.756729 68.087059
2004-05-03 07:31:50 51°9.708 2°39.808 12.672789 3.949625 33.706551 68.087059
2004-05-03 07:31:56 51°9.701 2°39.771 12.672879 3.951522 33.72322 68.087059
2004-05-03 07:32:00 51°9.695 2°39.747 12.671798 3.94973 33.706162 68.120768
2004-05-03 07:32:05 51°9.689 2°39.717 12.671798 3.94973 33.706162 68.120768
2004-05-03 07:32:10 51°9.682 2°39.687 12.67369 3.948044 33.690804 68.120768
2004-05-03 07:32:15 51°9.675 2°39.657 12.677068 3.954263 33.749312 68.120768
2004-05-03 07:32:20 51°9.667 2°39.627 12.6736 3.957004 33.776803 68.120768
2004-05-03 07:32:26 51°9.659 2°39.591 12.677293 3.948571 33.695821 68.120768
2004-05-03 07:32:30 51°9.654 2°39.567 12.675266 3.953842 33.745995 68.087059
2004-05-03 07:32:35 51°9.647 2°39.537 12.675266 3.953842 33.745995 68.087059
2004-05-03 07:32:40 51°9.641 2°39.506 12.67351 3.954474 33.752017 68.053349
2004-05-03 07:32:45 51°9.634 2°39.476 12.669456 3.951522 33.723917 68.120768
2004-05-03 07:32:50 51°9.628 2°39.445 12.669546 3.9472 33.682777 68.120768
2004-05-03 07:32:54 51°9.623 2°39.421 12.668105 3.946779 33.678068 68.087059
2004-05-03 07:33:00 51°9.616 2°39.384 12.665042 3.951839 33.726928 68.120768
2004-05-03 07:33:05 51°9.61 2°39.354 12.665042 3.951839 33.726928 68.120768
2004-05-03 07:33:09 51°9.605 2°39.329 12.663241 3.949625 33.705855 68.053349
2004-05-03 07:33:14 51°9.598 2°39.299 12.658871 3.945514 33.668116 68.053349
2004-05-03 07:33:20 51°9.59 2°39.263 12.660628 3.949941 33.712348 68.120768
2004-05-03 07:33:25 51°9.583 2°39.233 12.658781 3.944565 33.662565 68.087059
2004-05-03 07:33:30 51°9.576 2°39.203 12.657114 3.946357 33.681015 68.087059
2004-05-03 07:33:36 51°9.567 2°39.167 12.657114 3.946357 33.681015 68.087059
2004-05-03 07:33:40 51°9.562 2°39.143 12.657339 3.948676 33.705879 68.120768
2004-05-03 07:33:45 51°9.555 2°39.112 12.654997 3.952155 33.740397 68.087059
2004-05-03 07:33:50 51°9.549 2°39.082 12.654141 3.942562 33.651153 68.053349
2004-05-03 07:33:55 51°9.543 2°39.051 12.646437 3.95089 33.731141 68.120768
2004-05-03 07:34:01 51°9.535 2°39.015 12.644094 3.942667 33.653548 68.120768
2004-05-03 07:34:05 51°9.53 2°38.991 12.644094 3.942667 33.653548 68.120768
2004-05-03 07:34:10 51°9.523 2°38.96 12.644094 3.94583 33.684352 68.087059
2004-05-03 07:34:16 51°9.515 2°38.924 12.642652 3.94193 33.64861 68.053349
2004-05-03 07:34:20 51°9.51 2°38.899 12.638462 3.94193 33.650001 68.087059
2004-05-03 07:34:25 51°9.503 2°38.869 12.635262 3.943405 33.666837 68.053349
2004-05-03 07:34:30 51°9.496 2°38.839 12.632604 3.945936 33.693019 68.087059
2004-05-03 07:34:35 51°9.489 2°38.809 12.632604 3.945936 33.693019 68.087059
2004-05-03 07:34:40 51°9.483 2°38.778 12.629043 3.945725 33.691708 68.087059
2004-05-03 07:34:45 51°9.476 2°38.748 12.629133 3.943089 33.670788 68.087059
2004-05-03 07:34:50 51°9.47 2°38.717 12.628367 3.946146 33.701299 68.087059
2004-05-03 07:34:53 51°9.466 2°38.699 12.625798 3.94193 33.664619 68.087059
2004-05-03 07:35:00 51°9.457 2°38.656 12.623635 3.945936 33.703474 68.154477
2004-05-03 07:35:05 51°9.45 2°38.626 12.623635 3.945936 33.703474 68.154477
2004-05-03 07:35:10 51°9.444 2°38.596 12.622959 3.944987 33.697224 68.154477
2004-05-03 07:35:14 51°9.438 2°38.572 12.620345 3.943089 33.681238 68.087059
2004-05-03 07:35:20 51°9.43 2°38.536 12.622103 3.942562 33.676914 68.154477
2004-05-03 07:35:25 51°9.423 2°38.505 12.620119 3.949415 33.743598 68.120768
2004-05-03 07:35:30 51°9.416 2°38.475 12.620615 3.947939 33.730232 68.120768
2004-05-03 07:35:34 51°9.411 2°38.451 12.620615 3.947939 33.730232 68.120768
2004-05-03 07:35:40 51°9.403 2°38.414 12.623184 3.952683 33.778937 68.087059
2004-05-03 07:35:45 51°9.397 2°38.384 12.624942 3.953104 33.782957 68.120768
2004-05-03 07:35:50 51°9.391 2°38.353 12.625077 3.953315 33.786365 68.154477
2004-05-03 07:35:54 51°9.385 2°38.329 12.62368 3.953526 33.788375 68.120768
2004-05-03 07:36:00 51°9.378 2°38.292 12.630305 3.954053 33.7934 68.188187
2004-05-03 07:36:05 51°9.371 2°38.262 12.630305 3.954053 33.7934 68.188187
2004-05-03 07:36:09 51°9.366 2°38.238 12.633009 3.955002 33.801746 68.221896
2004-05-03 07:36:14 51°9.36 2°38.208 12.634226 3.955318 33.804061 68.188187
2004-05-03 07:36:20 51°9.351 2°38.171 12.636975 3.955845 33.809086 68.154477
2004-05-03 07:36:25 51°9.345 2°38.141 12.639228 3.956478 33.814416 68.221896
2004-05-03 07:36:30 51°9.339 2°38.111 12.645401 3.956794 33.814632 68.221896
2004-05-03 07:36:33 51°9.335 2°38.093 12.645401 3.956794 33.814632 68.221896
2004-05-03 07:36:40 51°9.326 2°38.05 12.64513 3.957848 33.822582 68.221896
2004-05-03 07:36:45 51°9.319 2°38.02 12.649185 3.958481 33.825112 68.221896
2004-05-03 07:36:50 51°9.312 2°37.99 12.650492 3.959219 33.831446 68.188187
2004-05-03 07:36:56 51°9.304 2°37.954 12.652835 3.95964 33.831966 68.221896
2004-05-03 07:37:00 51°9.299 2°37.93 12.654997 3.960378 33.8362 68.188187
2004-05-03 07:37:05 51°9.293 2°37.9 12.654997 3.960378 33.8362 68.188187
2004-05-03 07:37:10 51°9.286 2°37.87 12.656979 3.960483 33.835105 68.221896
2004-05-03 07:37:16 51°9.278 2°37.834 12.659862 3.961959 33.84707 68.188187
2004-05-03 07:37:20 51°9.273 2°37.81 12.663871 3.961959 33.84427 68.255606
2004-05-03 07:37:25 51°9.266 2°37.78 12.663646 3.962908 33.852612 68.221896
2004-05-03 07:37:30 51°9.26 2°37.75 12.665538 3.963541 33.857239 68.221896
2004-05-03 07:37:35 51°9.254 2°37.719 12.665538 3.963541 33.857239 68.221896
2004-05-03 07:37:40 51°9.248 2°37.689 12.665628 3.964384 33.862475 68.188187
2004-05-03 07:37:45 51°9.242 2°37.658 12.669456 3.9647 33.862688 68.255606
2004-05-03 07:37:50 51°9.236 2°37.628 12.669276 3.965227 33.86631 68.188187
2004-05-03 07:37:55 51°9.23 2°37.598 12.670898 3.965649 33.868227 68.221896
2004-05-03 07:38:00 51°9.224 2°37.567 12.67342 3.96586 33.868835 68.188187
2004-05-03 07:38:05 51°9.217 2°37.537 12.67342 3.96586 33.868835 68.188187
2004-05-03 07:38:10 51°9.21 2°37.508 12.672609 3.966176 33.871148 68.255606
2004-05-03 07:38:14 51°9.205 2°37.484 12.676932 3.966914 33.876778 68.255606
2004-05-03 07:38:20 51°9.197 2°37.449 12.679049 3.967125 33.878087 68.255606
2004-05-03 07:38:25 51°9.19 2°37.421 12.681526 3.967019 33.874982 68.221896
2004-05-03 07:38:30 51°9.183 2°37.395 12.682742 3.967546 33.877902 68.221896
2004-05-03 07:38:36 51°9.173 2°37.366 12.682742 3.967546 33.877902 68.221896
2004-05-03 07:38:40 51°9.166 2°37.349 12.686254 3.967757 33.879911 68.188187
2004-05-03 07:38:45 51°9.157 2°37.329 12.686479 3.968073 33.880823 68.188187
2004-05-03 07:38:50 51°9.148 2°37.312 12.692558 3.968073 33.879423 68.255606
2004-05-03 07:38:56 51°9.137 2°37.294 12.694809 3.96839 33.879635 68.188187
2004-05-03 07:39:00 51°9.129 2°37.283 12.696835 3.9686 33.880243 68.255606
2004-05-03 07:39:05 51°9.119 2°37.27 12.696835 3.9686 33.880243 68.255606
2004-05-03 07:39:10 51°9.11 2°37.259 12.701427 3.969022 33.882159 68.221896
2004-05-03 07:39:15 51°9.101 2°37.249 12.704083 3.969127 33.881063 68.221896
2004-05-03 07:39:20 51°9.093 2°37.239 12.712455 3.969338 33.880271 68.188187
2004-05-03 07:39:25 51°9.084 2°37.232 12.715651 3.969338 33.878871 68.188187
2004-05-03 07:39:30 51°9.077 2°37.226 12.720467 3.969338 33.876072 68.188187
2004-05-03 07:39:35 51°9.07 2°37.22 12.720467 3.969338 33.876072 68.188187
2004-05-03 07:39:40 51°9.064 2°37.214 12.726767 3.969338 33.872574 68.221896
2004-05-03 07:39:45 51°9.058 2°37.208 12.731537 3.969654 33.872787 68.188187
2004-05-03 07:39:50 51°9.054 2°37.202 12.735632 3.969443 33.865884 68.255606
2004-05-03 07:39:54 51°9.051 2°37.197 12.739636 3.96976 33.864699 68.221896
2004-05-03 07:40:00 51°9.047 2°37.191 12.746475 3.969338 33.857191 68.255606
2004-05-03 07:40:05 51°9.045 2°37.186 12.746475 3.969338 33.857191 68.255606
2004-05-03 07:40:09 51°9.043 2°37.182 12.749714 3.96997 33.856222 68.289315
2004-05-03 07:40:16 51°9.041 2°37.177 12.753493 3.969549 33.848019 68.424153
2004-05-03 07:40:20 51°9.039 2°37.174 12.759565 3.96997 33.84784 68.356734
2004-05-03 07:40:25 51°9.038 2°37.172 12.766087 3.969865 33.84195 68.221896
2004-05-03 07:40:30 51°9.037 2°37.17 12.771034 3.96997 33.839463 68.188187
2004-05-03 07:40:35 51°9.037 2°37.169 12.771034 3.96997 33.839463 68.188187
2004-05-03 07:40:40 51°9.036 2°37.168 12.774226 3.970181 33.836583 68.188187
2004-05-03 07:40:45 51°9.035 2°37.168 12.77625 3.969865 33.830088 68.255606
2004-05-03 07:40:50 51°9.035 2°37.169 12.778004 3.969654 33.824596 68.188187
2004-05-03 07:40:55 51°9.035 2°37.17 12.780567 3.969548 33.818017 68.221896
2004-05-03 07:41:00 51°9.034 2°37.171 12.781736 3.969759 33.816535 68.221896
2004-05-03 07:41:06 51°9.034 2°37.172 12.781736 3.969759 33.816535 68.221896
2004-05-03 07:41:10 51°9.033 2°37.173 12.783714 3.970391 33.819061 68.221896
2004-05-03 07:41:16 51°9.033 2°37.173 12.785693 3.970075 33.813269 68.154477
2004-05-03 07:41:21 51°9.033 2°37.171 12.786412 3.970075 33.811876 68.154477
2004-05-03 07:41:26 51°9.032 2°37.168 12.787266 3.970497 33.813095 68.120768
2004-05-03 07:41:30 51°9.033 2°37.164 12.78857 3.951627 33.633196 68.120768
2004-05-03 07:41:36 51°9.033 2°37.158 12.78857 3.951627 33.633196 68.120768
2004-05-03 07:41:41 51°9.035 2°37.151 12.789604 3.970391 33.810004 68.154477
2004-05-03 07:41:46 51°9.037 2°37.145 12.791942 3.970602 33.809917 68.188187
2004-05-03 07:41:50 51°9.04 2°37.14 12.791492 3.970497 33.807523 68.087059
2004-05-03 07:41:55 51°9.044 2°37.134 12.795359 3.970707 33.808133 68.120768
2004-05-03 07:42:00 51°9.048 2°37.129 12.797606 3.970497 33.805434 68.120768
2004-05-03 07:42:05 51°9.054 2°37.125 12.797606 3.970497 33.805434 68.120768
2004-05-03 07:42:10 51°9.06 2°37.122 12.800079 3.970602 33.805043 68.120768
2004-05-03 07:42:15 51°9.066 2°37.121 12.801472 3.970918 33.806654 68.120768
2004-05-03 07:42:20 51°9.072 2°37.121 12.803854 3.970707 33.804652 68.120768
2004-05-03 07:42:25 51°9.079 2°37.123 12.799225 3.970602 33.800866 68.087059
2004-05-03 07:42:30 51°9.085 2°37.127 12.802641 3.970918 33.801085 68.120768
2004-05-03 07:42:35 51°9.09 2°37.132 12.802641 3.970918 33.801085 68.120768
2004-05-03 07:42:40 51°9.096 2°37.139 12.801157 3.971129 33.801695 68.120768
2004-05-03 07:42:45 51°9.1 2°37.147 12.804439 3.97134 33.801609 68.120768
2004-05-03 07:42:50 51°9.104 2°37.156 12.803585 3.971445 33.801915 68.053349
2004-05-03 07:42:54 51°9.106 2°37.164 12.79419 3.971551 33.80222 68.120768
2004-05-03 07:43:01 51°9.108 2°37.179 12.791942 3.971867 33.805223 68.087059
2004-05-03 07:43:05 51°9.108 2°37.188 12.791942 3.971867 33.805223 68.087059
2004-05-03 07:43:10 51°9.109 2°37.198 12.787536 3.972183 33.806833 68.154477
2004-05-03 07:43:14 51°9.109 2°37.206 12.77679 3.972499 33.80914 68.154477
2004-05-03 07:43:21 51°9.108 2°37.219 12.771978 3.972394 33.808139 68.154477
2004-05-03 07:43:25 51°9.108 2°37.226 12.764468 3.972816 33.815624 68.154477
2004-05-03 07:43:30 51°9.107 2°37.234 12.763883 3.972921 33.820107 68.154477
2004-05-03 07:43:34 51°9.107 2°37.24 12.763883 3.972921 33.820107 68.154477
2004-05-03 07:43:40 51°9.106 2°37.247 12.761004 3.97271 33.823676 68.188187
2004-05-03 07:43:45 51°9.105 2°37.251 12.763748 3.9725 33.829338 68.188187
2004-05-03 07:43:50 51°9.104 2°37.253 12.762938 3.972394 33.82973 68.221896
2004-05-03 07:43:55 51°9.104 2°37.254 12.759115 3.972289 33.835699 68.154477
2004-05-03 07:44:00 51°9.103 2°37.255 12.757946 3.9725 33.839098 68.188187
2004-05-03 07:44:05 51°9.102 2°37.254 12.757946 3.9725 33.839098 68.188187
2004-05-03 07:44:10 51°9.102 2°37.254 12.750029 3.971867 33.837271 68.221896
2004-05-03 07:44:14 51°9.101 2°37.254 12.753628 3.972184 33.840974 68.154477
2004-05-03 07:44:20 51°9.101 2°37.254 12.748184 3.972395 33.844373 68.188187
2004-05-03 07:44:25 51°9.1 2°37.254 12.751018 3.971867 33.842153 68.221896
2004-05-03 07:44:30 51°9.099 2°37.253 12.744585 3.971657 33.842242 68.188187
2004-05-03 07:44:33 51°9.099 2°37.253 12.744585 3.971657 33.842242 68.188187
2004-05-03 07:44:40 51°9.098 2°37.253 12.742876 3.971657 33.844335 68.221896
2004-05-03 07:44:45 51°9.098 2°37.253 12.745125 3.971446 33.843028 68.154477
2004-05-03 07:44:50 51°9.097 2°37.253 12.742696 3.971657 33.847824 68.188187
2004-05-03 07:44:54 51°9.097 2°37.253 12.741931 3.971446 33.846518 68.154477
2004-05-03 07:45:00 51°9.096 2°37.252 12.742021 3.970813 33.843295 68.154477
2004-05-03 07:45:05 51°9.096 2°37.252 12.742021 3.970813 33.843295 68.154477
2004-05-03 07:45:10 51°9.095 2°37.252 12.739771 3.970497 33.840986 68.188187
2004-05-03 07:45:15 51°9.095 2°37.252 12.738377 3.970497 33.840986 68.120768
2004-05-03 07:45:20 51°9.095 2°37.252 12.739276 3.970603 33.842686 68.188187
2004-05-03 07:45:25 51°9.094 2°37.252 12.739186 3.970708 33.845084 68.154477
2004-05-03 07:45:30 51°9.093 2°37.252 12.735767 3.970708 33.844386 68.120768
2004-05-03 07:45:36 51°9.093 2°37.252 12.735767 3.970708 33.844386 68.120768
2004-05-03 07:45:40 51°9.093 2°37.252 12.732122 3.970813 33.847483 68.120768
2004-05-03 07:45:45 51°9.092 2°37.252 12.733742 3.970392 33.845567 68.087059
2004-05-03 07:45:50 51°9.091 2°37.252 12.734372 3.970076 33.841861 68.087059
2004-05-03 07:45:55 51°9.091 2°37.252 12.735992 3.970603 33.84827 68.154477
2004-05-03 07:46:00 51°9.09 2°37.252 12.734012 3.970076 33.844654 68.087059
2004-05-03 07:46:05 51°9.09 2°37.253 12.734012 3.970076 33.844654 68.087059
2004-05-03 07:46:10 51°9.089 2°37.253 12.733967 3.970286 33.848055 68.120768
2004-05-03 07:46:14 51°9.089 2°37.253 12.733607 3.970076 33.847447 68.120768
2004-05-03 07:46:21 51°9.088 2°37.253 12.734912 3.96997 33.845746 68.087059
2004-05-03 07:46:25 51°9.087 2°37.253 12.736802 3.96997 33.845746 68.120768
2004-05-03 07:46:30 51°9.087 2°37.253 12.736217 3.96997 33.845746 68.087059
2004-05-03 07:46:35 51°9.086 2°37.253 12.736217 3.96997 33.845746 68.087059
2004-05-03 07:46:40 51°9.085 2°37.253 12.739276 3.969759 33.84374 68.087059
2004-05-03 07:46:45 51°9.085 2°37.253 12.740806 3.969759 33.844438 68.120768
2004-05-03 07:46:50 51°9.084 2°37.253 12.732707 3.970076 33.846748 68.087059
2004-05-03 07:46:54 51°9.083 2°37.253 12.733292 3.969865 33.845441 68.087059
2004-05-03 07:47:00 51°9.083 2°37.253 12.732077 3.970286 33.848055 68.087059
2004-05-03 07:47:05 51°9.082 2°37.253 12.732077 3.970286 33.848055 68.087059
2004-05-03 07:47:10 51°9.081 2°37.254 12.733652 3.970076 33.843956 68.053349
2004-05-03 07:47:15 51°9.081 2°37.254 12.735722 3.970286 33.845961 68.087059
2004-05-03 07:47:20 51°9.08 2°37.254 12.732212 3.970076 33.84605 68.053349
2004-05-03 07:47:25 51°9.079 2°37.254 12.735767 3.96997 33.847142 68.053349
2004-05-03 07:47:30 51°9.079 2°37.254 12.736622 3.96997 33.84784 68.053349
2004-05-03 07:47:34 51°9.078 2°37.254 12.736622 3.96997 33.84784 68.053349
2004-05-03 07:47:40 51°9.077 2°37.254 12.735902 3.969443 33.84143 68.087059
2004-05-03 07:47:45 51°9.076 2°37.254 12.739771 3.969759 33.843042 68.087059
2004-05-03 07:47:50 51°9.076 2°37.254 12.740761 3.969865 33.846139 68.120768
2004-05-03 07:47:55 51°9.075 2°37.254 12.742246 3.96997 33.845047 68.087059
2004-05-03 07:48:00 51°9.074 2°37.254 12.7458 3.969654 33.841341 68.053349
2004-05-03 07:48:05 51°9.073 2°37.254 12.7458 3.969654 33.841341 68.053349
2004-05-03 07:48:10 51°9.073 2°37.254 12.746025 3.969865 33.842648 68.120768
2004-05-03 07:48:15 51°9.072 2°37.254 12.746025 3.96997 33.842953 68.053349
2004-05-03 07:48:20 51°9.071 2°37.254 12.748724 3.970497 33.845872 68.053349
2004-05-03 07:48:25 51°9.071 2°37.254 12.751918 3.970181 33.84077 68.120768
2004-05-03 07:48:30 51°9.07 2°37.254 12.750524 3.970181 33.840072 68.120768
2004-05-03 07:48:34 51°9.069 2°37.254 12.750524 3.970181 33.840072 68.120768
2004-05-03 07:48:40 51°9.069 2°37.254 12.752278 3.970392 33.839983 68.120768
2004-05-03 07:48:45 51°9.068 2°37.254 12.751558 3.970497 33.840986 68.087059
2004-05-03 07:48:50 51°9.067 2°37.254 12.757586 3.970392 33.838588 68.087059
2004-05-03 07:48:55 51°9.066 2°37.254 12.756776 3.970708 33.839501 68.120768
2004-05-03 07:49:00 51°9.066 2°37.254 12.755112 3.970392 33.835797 68.087059
2004-05-03 07:49:05 51°9.065 2°37.254 12.755112 3.970392 33.835797 68.087059
2004-05-03 07:49:10 51°9.064 2°37.254 12.758216 3.970813 33.839108 68.120768
2004-05-03 07:49:16 51°9.063 2°37.254 12.758216 3.970602 33.836406 68.120768
2004-05-03 07:49:20 51°9.063 2°37.254 12.762534 3.970813 33.837015 68.120768
2004-05-03 07:49:25 51°9.062 2°37.254 12.759025 3.970813 33.834922 68.120768
2004-05-03 07:49:30 51°9.061 2°37.254 12.760644 3.970919 33.834529 68.154477
2004-05-03 07:49:35 51°9.06 2°37.254 12.760644 3.970919 33.834529 68.154477
2004-05-03 07:49:40 51°9.059 2°37.254 12.761274 3.970602 33.831523 68.154477
2004-05-03 07:49:45 51°9.059 2°37.254 12.760465 3.970497 33.829824 68.154477
2004-05-03 07:49:50 51°9.058 2°37.254 12.760465 3.971024 33.834136 68.154477
2004-05-03 07:49:55 51°9.057 2°37.254 12.765637 3.971024 33.834136 68.120768
2004-05-03 07:50:00 51°9.056 2°37.254 12.762938 3.970919 33.832437 68.120768
2004-05-03 07:50:05 51°9.055 2°37.254 12.762938 3.970919 33.832437 68.120768
2004-05-03 07:50:10 51°9.055 2°37.254 12.765772 3.971024 33.832742 68.120768
2004-05-03 07:50:15 51°9.054 2°37.254 12.766806 3.970813 33.83004 68.087059
2004-05-03 07:50:21 51°9.053 2°37.254 12.767076 3.971024 33.832044 68.154477
2004-05-03 07:50:25 51°9.052 2°37.254 12.7682 3.97134 33.834353 68.120768
2004-05-03 07:50:30 51°9.051 2°37.254 12.770809 3.971235 33.831956 68.087059
2004-05-03 07:50:34 51°9.051 2°37.254 12.770809 3.971235 33.831956 68.087059
2004-05-03 07:50:40 51°9.05 2°37.254 12.768695 3.97134 33.832261 68.120768
2004-05-03 07:50:45 51°9.049 2°37.254 12.768605 3.971024 33.827861 68.154477
2004-05-03 07:50:50 51°9.048 2°37.254 12.774901 3.97134 33.830169 68.120768
2004-05-03 07:50:55 51°9.047 2°37.254 12.77589 3.97134 33.830169 68.120768
2004-05-03 07:51:00 51°9.047 2°37.254 12.771393 3.971235 33.827773 68.154477
2004-05-03 07:51:05 51°9.046 2°37.254 12.771393 3.971235 33.827773 68.154477
2004-05-03 07:51:10 51°9.045 2°37.254 12.769864 3.971551 33.830778 68.120768
2004-05-03 07:51:15 51°9.044 2°37.254 12.770584 3.97134 33.82738 68.154477
2004-05-03 07:51:20 51°9.043 2°37.254 12.772608 3.97134 33.825289 68.120768
2004-05-03 07:51:25 51°9.042 2°37.254 12.769415 3.971762 33.828599 68.087059
2004-05-03 07:51:30 51°9.042 2°37.254 12.768515 3.971656 33.828295 68.120768
2004-05-03 07:51:34 51°9.041 2°37.254 12.768515 3.971656 33.828295 68.120768
2004-05-03 07:51:40 51°9.04 2°37.254 12.76883 3.97134 33.825986 68.120768
2004-05-03 07:51:45 51°9.039 2°37.254 12.770044 3.97134 33.825289 68.154477
2004-05-03 07:51:50 51°9.039 2°37.254 12.771079 3.971551 33.828687 68.154477
2004-05-03 07:51:54 51°9.038 2°37.254 12.771303 3.971762 33.83069 68.154477
2004-05-03 07:52:00 51°9.037 2°37.255 12.771978 3.971446 33.828382 68.120768
2004-05-03 07:52:05 51°9.036 2°37.255 12.771978 3.971446 33.828382 68.120768
2004-05-03 07:52:10 51°9.035 2°37.255 12.774316 3.971129 33.825377 68.120768
2004-05-03 07:52:16 51°9.034 2°37.255 12.769774 3.971446 33.829079 68.120768
2004-05-03 07:52:20 51°9.034 2°37.255 12.774361 3.971235 33.825682 68.154477
2004-05-03 07:52:25 51°9.033 2°37.255 12.776565 3.97134 33.825986 68.154477
2004-05-03 07:52:30 51°9.032 2°37.255 12.777689 3.971446 33.826291 68.188187
2004-05-03 07:52:35 51°9.031 2°37.255 12.777689 3.971446 33.826291 68.188187
2004-05-03 07:52:40 51°9.03 2°37.255 12.777194 3.971024 33.822284 68.154477
2004-05-03 07:52:45 51°9.03 2°37.255 12.777194 3.971551 33.82799 68.120768
2004-05-03 07:52:50 51°9.029 2°37.255 12.780612 3.971446 33.826291 68.154477
2004-05-03 07:52:54 51°9.028 2°37.255 12.777194 3.971656 33.8269 68.188187
2004-05-03 07:53:00 51°9.027 2°37.255 12.778993 3.971129 33.820498 68.154477
2004-05-03 07:53:05 51°9.026 2°37.256 12.778993 3.971129 33.820498 68.154477
2004-05-03 07:53:10 51°9.025 2°37.256 12.780612 3.97134 33.823198 68.154477
2004-05-03 07:53:14 51°9.024 2°37.256 12.780297 3.971551 33.823111 68.120768
2004-05-03 07:53:20 51°9.023 2°37.256 12.780927 3.971551 33.822414 68.120768
2004-05-03 07:53:25 51°9.023 2°37.256 12.779443 3.971867 33.825419 68.154477
2004-05-03 07:53:30 51°9.022 2°37.256 12.781196 3.971551 33.821717 68.120768
2004-05-03 07:53:35 51°9.021 2°37.256 12.781196 3.971551 33.821717 68.120768
2004-05-03 07:53:40 51°9.02 2°37.256 12.780612 3.971656 33.822719 68.120768
2004-05-03 07:53:45 51°9.019 2°37.256 12.782096 3.971762 33.822327 68.188187
2004-05-03 07:53:50 51°9.018 2°37.256 12.780972 3.971867 33.823329 68.154477
2004-05-03 07:53:54 51°9.017 2°37.256 12.782275 3.971762 33.823024 68.154477
2004-05-03 07:54:00 51°9.016 2°37.256 12.781736 3.971445 33.820019 68.188187
2004-05-03 07:54:05 51°9.016 2°37.255 12.781736 3.971445 33.820019 68.188187
2004-05-03 07:54:10 51°9.015 2°37.255 12.783534 3.972078 33.824635 68.154477
2004-05-03 07:54:15 51°9.014 2°37.255 12.783669 3.972289 33.826638 68.188187
2004-05-03 07:54:20 51°9.013 2°37.255 12.785018 3.971551 33.819627 68.188187
2004-05-03 07:54:25 51°9.012 2°37.255 12.787266 3.971867 33.822632 68.120768
2004-05-03 07:54:29 51°9.011 2°37.255 12.786412 3.971551 33.819627 68.154477
2004-05-03 07:54:35 51°9.01 2°37.255 12.786412 3.971551 33.819627 68.154477
2004-05-03 07:54:40 51°9.009 2°37.255 12.784029 3.971551 33.818234 68.120768
2004-05-03 07:54:45 51°9.009 2°37.255 12.783085 3.971551 33.817537 68.154477
2004-05-03 07:54:50 51°9.008 2°37.255 12.784793 3.971445 33.815143 68.120768
2004-05-03 07:54:55 51°9.007 2°37.255 12.784973 3.971762 33.81745 68.154477
2004-05-03 07:55:00 51°9.006 2°37.255 12.784524 3.971762 33.818147 68.154477
2004-05-03 07:55:05 51°9.005 2°37.255 12.784524 3.971762 33.818147 68.154477
2004-05-03 07:55:10 51°9.004 2°37.255 12.783579 3.971656 33.817842 68.120768
2004-05-03 07:55:14 51°9.003 2°37.255 12.784389 3.971656 33.817842 68.120768
2004-05-03 07:55:20 51°9.003 2°37.255 12.78322 3.971551 33.817537 68.154477
2004-05-03 07:55:25 51°9.002 2°37.254 12.780972 3.971551 33.816841 68.154477
2004-05-03 07:55:30 51°9.001 2°37.254 12.782096 3.971129 33.813532 68.087059
2004-05-03 07:55:35 51°9 2°37.254 12.782096 3.971129 33.813532 68.087059
2004-05-03 07:55:40 51°8.999 2°37.254 12.782725 3.971445 33.817232 68.154477
2004-05-03 07:55:45 51°8.998 2°37.254 12.782995 3.971656 33.818539 68.120768
2004-05-03 07:55:50 51°8.997 2°37.254 12.783085 3.97134 33.816231 68.154477
2004-05-03 07:55:56 51°8.996 2°37.254 12.784029 3.971024 33.81253 68.154477
2004-05-03 07:56:00 51°8.995 2°37.254 12.783669 3.971235 33.81523 68.087059
2004-05-03 07:56:05 51°8.994 2°37.253 12.783669 3.971235 33.81523 68.087059
2004-05-03 07:56:10 51°8.993 2°37.253 12.780522 3.97134 33.815534 68.120768
2004-05-03 07:56:14 51°8.993 2°37.253 12.781826 3.971024 33.81253 68.120768
2004-05-03 07:56:20 51°8.992 2°37.253 12.781061 3.970918 33.810832 68.087059
2004-05-03 07:56:25 51°8.991 2°37.253 12.780657 3.970813 33.809831 68.120768
2004-05-03 07:56:30 51°8.99 2°37.253 12.781196 3.97134 33.816231 68.120768
2004-05-03 07:56:35 51°8.989 2°37.253 12.781196 3.97134 33.816231 68.120768
2004-05-03 07:56:40 51°8.988 2°37.253 12.778094 3.970918 33.812225 68.154477
2004-05-03 07:56:45 51°8.987 2°37.253 12.779308 3.970918 33.811529 68.154477
2004-05-03 07:56:50 51°8.987 2°37.253 12.785917 3.971129 33.814925 68.120768
2004-05-03 07:56:55 51°8.986 2°37.253 12.783939 3.971129 33.814925 68.120768
2004-05-03 07:57:00 51°8.985 2°37.253 12.783085 3.970918 33.812922 68.154477
2004-05-03 07:57:05 51°8.984 2°37.253 12.783085 3.970918 33.812922 68.154477
2004-05-03 07:57:10 51°8.983 2°37.253 12.783265 3.971129 33.816318 68.120768
2004-05-03 07:57:14 51°8.982 2°37.254 12.782275 3.971024 33.81462 68.120768
2004-05-03 07:57:20 51°8.981 2°37.254 12.78331 3.970918 33.812225 68.120768
2004-05-03 07:57:25 51°8.981 2°37.254 12.784928 3.971024 33.81253 68.154477
2004-05-03 07:57:30 51°8.98 2°37.254 12.785288 3.971235 33.813837 68.120768
2004-05-03 07:57:34 51°8.979 2°37.254 12.785288 3.971235 33.813837 68.120768
2004-05-03 07:57:41 51°8.978 2°37.254 12.784524 3.971129 33.812835 68.154477
2004-05-03 07:57:45 51°8.977 2°37.254 12.783489 3.970918 33.812922 68.154477
2004-05-03 07:57:50 51°8.976 2°37.254 12.784389 3.971235 33.814533 68.120768
2004-05-03 07:57:55 51°8.975 2°37.254 12.783355 3.971445 33.815839 68.120768
2004-05-03 07:58:00 51°8.974 2°37.254 12.783759 3.971235 33.81314 68.188187
2004-05-03 07:58:05 51°8.974 2°37.254 12.783759 3.971235 33.81314 68.188187
2004-05-03 07:58:10 51°8.973 2°37.254 12.785288 3.971551 33.817537 68.154477
2004-05-03 07:58:16 51°8.971 2°37.254 12.786142 3.971024 33.811834 68.154477
2004-05-03 07:58:20 51°8.97 2°37.253 12.784793 3.970813 33.809831 68.154477
2004-05-03 07:58:25 51°8.969 2°37.253 12.782141 3.971129 33.813532 68.120768
2004-05-03 07:58:30 51°8.967 2°37.253 12.784838 3.971129 33.813532 68.154477
2004-05-03 07:58:34 51°8.966 2°37.253 12.784838 3.971129 33.813532 68.154477
2004-05-03 07:58:40 51°8.964 2°37.253 12.787491 3.971235 33.813837 68.188187
2004-05-03 07:58:45 51°8.962 2°37.253 12.785603 3.971129 33.812835 68.154477
2004-05-03 07:58:50 51°8.96 2°37.253 12.792436 3.971129 33.812835 68.120768
2004-05-03 07:58:55 51°8.958 2°37.252 12.790863 3.971024 33.813227 68.120768
2004-05-03 07:59:00 51°8.956 2°37.251 12.78902 3.968915 33.791807 68.154477
2004-05-03 07:59:05 51°8.954 2°37.251 12.78902 3.968915 33.791807 68.154477
2004-05-03 07:59:10 51°8.951 2°37.25 12.792167 3.968388 33.785408 68.188187
2004-05-03 07:59:14 51°8.95 2°37.249 12.789694 3.967966 33.779316 68.120768
2004-05-03 07:59:20 51°8.947 2°37.248 12.791223 3.971445 33.812357 68.188187
2004-05-03 07:59:25 51°8.945 2°37.247 12.79347 3.97134 33.810659 68.188187
2004-05-03 07:59:29 51°8.943 2°37.245 12.791492 3.967439 33.773615 68.154477
2004-05-03 07:59:34 51°8.94 2°37.244 12.791492 3.967439 33.773615 68.154477
2004-05-03 07:59:40 51°8.938 2°37.242 12.790278 3.970918 33.805958 68.154477
2004-05-03 07:59:45 51°8.935 2°37.24 12.791852 3.965753 33.756903 68.154477
2004-05-03 07:59:50 51°8.933 2°37.238 12.791357 3.971235 33.807569 68.188187
2004-05-03 07:59:55 51°8.93 2°37.235 12.79392 3.97134 33.80857 68.154477
2004-05-03 08:00:00 51°8.928 2°37.232 12.798281 3.970813 33.803564 68.154477
2004-05-03 08:00:05 51°8.925 2°37.229 12.798281 3.970813 33.803564 68.154477
2004-05-03 08:00:10 51°8.923 2°37.226 12.801068 3.970918 33.805262 68.154477
2004-05-03 08:00:14 51°8.921 2°37.223 12.796213 3.970918 33.804566 68.154477
2004-05-03 08:00:20 51°8.919 2°37.218 12.800303 3.970707 33.802563 68.154477
2004-05-03 08:00:24 51°8.917 2°37.214 12.802551 3.970602 33.800866 68.188187
2004-05-03 08:00:30 51°8.915 2°37.209 12.802326 3.970918 33.801781 68.188187
2004-05-03 08:00:34 51°8.913 2°37.205 12.802326 3.970918 33.801781 68.188187